Observation data for Adrian on 03/10/2018      Previous  Date  Next       Current Mesonet Observations  Soil Data  Daily Summary Page  Observations in Plain Language
KAD1 100600Z 18014KT 06/M13 A2983 RMK A01 T00611132  RH  024%=      5-min Rain = 0
KAD1 100601Z 18014KT 06/M13 A2982 RMK A01 T00611131  RH  024%=      5-min Rain = 0
KAD1 100602Z 18014KT 06/M13 A2982 RMK A01 T00611131  RH  024%=      5-min Rain = 0
KAD1 100603Z 18014KT 06/M13 A2982 RMK A01 T00621131  RH  024%=      5-min Rain = 0
KAD1 100604Z 18015KT 06/M13 A2983 RMK A01 T00631131  RH  023%=      5-min Rain = 0
KAD1 100605Z 18015KT 06/M13 A2983 RMK A01 T00641132  RH  023%=      5-min Rain = 0
KAD1 100606Z 18015KT 06/M13 A2983 RMK A01 T00641132  RH  023%=      5-min Rain = 0
KAD1 100607Z 18015KT 06/M13 A2983 RMK A01 T00641132  RH  023%=      5-min Rain = 0
KAD1 100608Z 18015KT 06/M13 A2983 RMK A01 T00631132  RH  023%=      5-min Rain = 0
KAD1 100609Z 18015KT 06/M13 A2983 RMK A01 T00621133  RH  023%=      5-min Rain = 0
KAD1 100610Z 18015KT 06/M13 A2983 RMK A01 T00621132  RH  024%=      5-min Rain = 0
KAD1 100611Z 18015KT 06/M13 A2983 RMK A01 T00621131  RH  024%=      5-min Rain = 0
KAD1 100612Z 18015KT 07/M13 A2983 RMK A01 T00651129  RH  023%=      5-min Rain = 0
KAD1 100613Z 18015KT 07/M13 A2983 RMK A01 T00681128  RH  023%=      5-min Rain = 0
KAD1 100614Z 18016KT 07/M13 A2983 RMK A01 T00701128  RH  023%=      5-min Rain = 0
KAD1 100615Z 18015KT 07/M13 A2983 RMK A01 T00731128  RH  022%=      5-min Rain = 0
KAD1 100616Z 18016KT 08/M13 A2983 RMK A01 T00761128  RH  022%=      5-min Rain = 0
KAD1 100617Z 18016KT 08/M13 A2983 RMK A01 T00771128  RH  022%=      5-min Rain = 0
KAD1 100618Z 18015KT 08/M13 A2982 RMK A01 T00761129  RH  022%=      5-min Rain = 0
KAD1 100619Z 18015KT 07/M13 A2982 RMK A01 T00741130  RH  022%=      5-min Rain = 0
KAD1 100620Z 18015KT 07/M13 A2982 RMK A01 T00731129  RH  022%=      5-min Rain = 0
KAD1 100621Z 18014KT 07/M13 A2982 RMK A01 T00741129  RH  022%=      5-min Rain = 0
KAD1 100622Z 18014KT 07/M13 A2982 RMK A01 T00731129  RH  022%=      5-min Rain = 0
KAD1 100623Z 18015KT 07/M13 A2982 RMK A01 T00721129  RH  022%=      5-min Rain = 0
KAD1 100624Z 18014KT 07/M13 A2982 RMK A01 T00731129  RH  022%=      5-min Rain = 0
KAD1 100625Z 18014KT 08/M13 A2982 RMK A01 T00751128  RH  022%=      5-min Rain = 0
KAD1 100626Z 18014KT 08/M13 A2982 RMK A01 T00751129  RH  022%=      5-min Rain = 0
KAD1 100627Z 18014KT 08/M13 A2982 RMK A01 T00751128  RH  022%=      5-min Rain = 0
KAD1 100628Z 18015KT 07/M13 A2982 RMK A01 T00731129  RH  022%=      5-min Rain = 0
KAD1 100629Z 18015KT 07/M13 A2982 RMK A01 T00731128  RH  022%=      5-min Rain = 0
KAD1 100630Z 18015KT 07/M13 A2983 RMK A01 T00731129  RH  022%=      5-min Rain = 0
KAD1 100631Z 18015KT 07/M13 A2983 RMK A01 T00731128  RH  022%=      5-min Rain = 0
KAD1 100632Z 18015KT 07/M13 A2983 RMK A01 T00731128  RH  022%=      5-min Rain = 0
KAD1 100633Z 18015KT 07/M13 A2983 RMK A01 T00721129  RH  022%=      5-min Rain = 0
KAD1 100634Z 19015KT 07/M13 A2983 RMK A01 T00721128  RH  023%=      5-min Rain = 0
KAD1 100635Z 19014KT 07/M13 A2983 RMK A01 T00721127  RH  023%=      5-min Rain = 0
KAD1 100636Z 19016KT 07/M13 A2983 RMK A01 T00721126  RH  023%=      5-min Rain = 0
KAD1 100637Z 19015KT 07/M13 A2983 RMK A01 T00711126  RH  023%=      5-min Rain = 0
KAD1 100638Z 18016KT 07/M13 A2983 RMK A01 T00711126  RH  023%=      5-min Rain = 0
KAD1 100639Z 18015KT 07/M13 A2983 RMK A01 T00691127  RH  023%=      5-min Rain = 0
KAD1 100640Z 18016KT 07/M13 A2983 RMK A01 T00681127  RH  023%=      5-min Rain = 0
KAD1 100641Z 18016KT 07/M13 A2983 RMK A01 T00671127  RH  024%=      5-min Rain = 0
KAD1 100642Z 18016KT 07/M13 A2983 RMK A01 T00681126  RH  024%=      5-min Rain = 0
KAD1 100643Z 18016KT 07/M13 A2983 RMK A01 T00691125  RH  024%=      5-min Rain = 0
KAD1 100644Z 18016KT 07/M13 A2982 RMK A01 T00701125  RH  023%=      5-min Rain = 0
KAD1 100645Z 18015KT 07/M13 A2983 RMK A01 T00701125  RH  023%=      5-min Rain = 0
KAD1 100646Z 18015KT 07/M12 A2983 RMK A01 T00711124  RH  024%=      5-min Rain = 0
KAD1 100647Z 18016KT 07/M12 A2983 RMK A01 T00701124  RH  024%=      5-min Rain = 0
KAD1 100648Z 18016KT 07/M12 A2983 RMK A01 T00721123  RH  024%=      5-min Rain = 0
KAD1 100649Z 18016KT 07/M12 A2983 RMK A01 T00721123  RH  023%=      5-min Rain = 0
KAD1 100650Z 18015KT 07/M12 A2983 RMK A01 T00731123  RH  023%=      5-min Rain = 0
KAD1 100651Z 18015KT 07/M12 A2983 RMK A01 T00731123  RH  023%=      5-min Rain = 0
KAD1 100652Z 19016KT 07/M12 A2983 RMK A01 T00741123  RH  023%=      5-min Rain = 0
KAD1 100653Z 18016KT 07/M12 A2983 RMK A01 T00741122  RH  023%=      5-min Rain = 0
KAD1 100654Z 18016KT 07/M12 A2983 RMK A01 T00741122  RH  023%=      5-min Rain = 0
KAD1 100655Z 19017KT 07/M12 A2983 RMK A01 T00741123  RH  023%=      5-min Rain = 0
KAD1 100656Z 18016KT 07/M12 A2983 RMK A01 T00741123  RH  023%=      5-min Rain = 0
KAD1 100657Z 18016KT 07/M12 A2983 RMK A01 T00741122  RH  023%=      5-min Rain = 0
KAD1 100658Z 19015KT 07/M12 A2983 RMK A01 T00731123  RH  023%=      5-min Rain = 0
KAD1 100659Z 19016KT 07/M12 A2983 RMK A01 T00731122  RH  023%=      5-min Rain = 0
KAD1 100700Z 19016KT 07/M12 A2983 RMK A01 T00731122  RH  024%=      5-min Rain = 0
KAD1 100701Z 18016KT 07/M12 A2982 RMK A01 T00731122  RH  024%=      5-min Rain = 0
KAD1 100702Z 18015KT 07/M12 A2982 RMK A01 T00731121  RH  024%=      5-min Rain = 0
KAD1 100703Z 18016KT 07/M12 A2982 RMK A01 T00731121  RH  024%=      5-min Rain = 0
KAD1 100704Z 18016KT 07/M12 A2982 RMK A01 T00741121  RH  024%=      5-min Rain = 0
KAD1 100705Z 18016KT 08/M12 A2982 RMK A01 T00751121  RH  023%=      5-min Rain = 0
KAD1 100706Z 18017KT 08/M12 A2982 RMK A01 T00761120  RH  023%=      5-min Rain = 0
KAD1 100707Z 18016KT 08/M12 A2982 RMK A01 T00761121  RH  023%=      5-min Rain = 0
KAD1 100708Z 19016KT 08/M12 A2982 RMK A01 T00761121  RH  023%=      5-min Rain = 0
KAD1 100709Z 18016KT 08/M12 A2982 RMK A01 T00751121  RH  023%=      5-min Rain = 0
KAD1 100710Z 18016KT 07/M12 A2982 RMK A01 T00741120  RH  024%=      5-min Rain = 0
KAD1 100711Z 18016KT 07/M12 A2982 RMK A01 T00741120  RH  024%=      5-min Rain = 0
KAD1 100712Z 18016KT 08/M12 A2982 RMK A01 T00751119  RH  024%=      5-min Rain = 0
KAD1 100713Z 18017KT 08/M12 A2982 RMK A01 T00751119  RH  024%=      5-min Rain = 0
KAD1 100714Z 18016KT 08/M12 A2982 RMK A01 T00751118  RH  024%=      5-min Rain = 0
KAD1 100715Z 18016KT 08/M12 A2982 RMK A01 T00761117  RH  024%=      5-min Rain = 0
KAD1 100716Z 18016KT 08/M12 A2982 RMK A01 T00761116  RH  024%=      5-min Rain = 0
KAD1 100717Z 18017KT 08/M12 A2982 RMK A01 T00761116  RH  024%=      5-min Rain = 0
KAD1 100718Z 19016KT 08/M12 A2982 RMK A01 T00761116  RH  024%=      5-min Rain = 0
KAD1 100719Z 18016KT 08/M12 A2982 RMK A01 T00761117  RH  024%=      5-min Rain = 0
KAD1 100720Z 19016KT 08/M12 A2982 RMK A01 T00751117  RH  024%=      5-min Rain = 0
KAD1 100721Z 19015KT 08/M12 A2983 RMK A01 T00751117  RH  024%=      5-min Rain = 0
KAD1 100722Z 19016KT 08/M12 A2983 RMK A01 T00751117  RH  024%=      5-min Rain = 0
KAD1 100723Z 19016KT 07/M12 A2983 RMK A01 T00741117  RH  024%=      5-min Rain = 0
KAD1 100724Z 19015KT 07/M12 A2983 RMK A01 T00741118  RH  024%=      5-min Rain = 0
KAD1 100725Z 19016KT 07/M12 A2983 RMK A01 T00741118  RH  024%=      5-min Rain = 0
KAD1 100726Z 19016KT 08/M12 A2983 RMK A01 T00761117  RH  024%=      5-min Rain = 0
KAD1 100727Z 19015KT 08/M12 A2983 RMK A01 T00761117  RH  024%=      5-min Rain = 0
KAD1 100728Z 19016KT 08/M12 A2983 RMK A01 T00761117  RH  024%=      5-min Rain = 0
KAD1 100729Z 19016KT 08/M12 A2983 RMK A01 T00771117  RH  024%=      5-min Rain = 0
KAD1 100730Z 19016KT 08/M12 A2983 RMK A01 T00771116  RH  024%=      5-min Rain = 0
KAD1 100731Z 19016KT 08/M12 A2983 RMK A01 T00781116  RH  024%=      5-min Rain = 0
KAD1 100732Z 19016KT 08/M12 A2983 RMK A01 T00791115  RH  024%=      5-min Rain = 0
KAD1 100733Z 19016KT 08/M12 A2983 RMK A01 T00791115  RH  024%=      5-min Rain = 0
KAD1 100734Z 19016KT 08/M12 A2983 RMK A01 T00791115  RH  024%=      5-min Rain = 0
KAD1 100735Z 19016KT 08/M12 A2983 RMK A01 T00801115  RH  024%=      5-min Rain = 0
KAD1 100736Z 19018KT 08/M11 A2983 RMK A01 T00801114  RH  024%=      5-min Rain = 0
KAD1 100737Z 19018KT 08/M11 A2983 RMK A01 T00801113  RH  024%=      5-min Rain = 0
KAD1 100738Z 19018KT 08/M11 A2983 RMK A01 T00811112  RH  024%=      5-min Rain = 0
KAD1 100739Z 19018KT 08/M11 A2983 RMK A01 T00821112  RH  024%=      5-min Rain = 0
KAD1 100740Z 19017KT 08/M11 A2983 RMK A01 T00831111  RH  024%=      5-min Rain = 0
KAD1 100741Z 19017KT 08/M11 A2983 RMK A01 T00831111  RH  024%=      5-min Rain = 0
KAD1 100742Z 19017KT 08/M11 A2983 RMK A01 T00831111  RH  024%=      5-min Rain = 0
KAD1 100743Z 19016KT 08/M11 A2983 RMK A01 T00831112  RH  024%=      5-min Rain = 0
KAD1 100744Z 19016KT 08/M11 A2983 RMK A01 T00831112  RH  024%=      5-min Rain = 0
KAD1 100745Z 19017KT 08/M11 A2983 RMK A01 T00831113  RH  024%=      5-min Rain = 0
KAD1 100746Z 19016KT 08/M11 A2983 RMK A01 T00821114  RH  024%=      5-min Rain = 0
KAD1 100747Z 19018KT 08/M12 A2983 RMK A01 T00811116  RH  023%=      5-min Rain = 0
KAD1 100748Z 19018KT 08/M12 A2983 RMK A01 T00801116  RH  023%=      5-min Rain = 0
KAD1 100749Z 19017KT 08/M12 A2983 RMK A01 T00801116  RH  024%=      5-min Rain = 0
KAD1 100750Z 19017KT 08/M12 A2983 RMK A01 T00801117  RH  023%=      5-min Rain = 0
KAD1 100751Z 19016KT 08/M12 A2983 RMK A01 T00791118  RH  023%=      5-min Rain = 0
KAD1 100752Z 19017KT 08/M12 A2983 RMK A01 T00791118  RH  023%=      5-min Rain = 0
KAD1 100753Z 19017KT 08/M12 A2983 RMK A01 T00781118  RH  024%=      5-min Rain = 0
KAD1 100754Z 19017KT 08/M12 A2983 RMK A01 T00771118  RH  024%=      5-min Rain = 0
KAD1 100755Z 19018KT 08/M12 A2983 RMK A01 T00761118  RH  024%=      5-min Rain = 0
KAD1 100756Z 19017KT 08/M12 A2983 RMK A01 T00761118  RH  024%=      5-min Rain = 0
KAD1 100757Z 19018KT 08/M12 A2983 RMK A01 T00751117  RH  024%=      5-min Rain = 0
KAD1 100758Z 19017KT 08/M12 A2983 RMK A01 T00761115  RH  024%=      5-min Rain = 0
KAD1 100759Z 19016KT 08/M11 A2983 RMK A01 T00781114  RH  024%=      5-min Rain = 0
KAD1 100800Z 19016KT 08/M11 A2983 RMK A01 T00781114  RH  024%=      5-min Rain = 0
KAD1 100801Z 19016KT 08/M12 A2983 RMK A01 T00771116  RH  024%=      5-min Rain = 0
KAD1 100802Z 19016KT 07/M12 A2983 RMK A01 T00741118  RH  024%=      5-min Rain = 0
KAD1 100803Z 19016KT 07/M12 A2983 RMK A01 T00711120  RH  024%=      5-min Rain = 0
KAD1 100804Z 19016KT 07/M12 A2983 RMK A01 T00701119  RH  025%=      5-min Rain = 0
KAD1 100805Z 19016KT 07/M12 A2983 RMK A01 T00701118  RH  025%=      5-min Rain = 0
KAD1 100806Z 19016KT 07/M12 A2983 RMK A01 T00701117  RH  025%=      5-min Rain = 0
KAD1 100807Z 20017KT 07/M12 A2983 RMK A01 T00701117  RH  025%=      5-min Rain = 0
KAD1 100808Z 19017KT 07/M12 A2983 RMK A01 T00701117  RH  025%=      5-min Rain = 0
KAD1 100809Z 19018KT 07/M12 A2983 RMK A01 T00701117  RH  025%=      5-min Rain = 0
KAD1 100810Z 19018KT 07/M12 A2983 RMK A01 T00701116  RH  025%=      5-min Rain = 0
KAD1 100811Z 20018KT 07/M12 A2983 RMK A01 T00701115  RH  025%=      5-min Rain = 0
KAD1 100812Z 20018KT 07/M11 A2983 RMK A01 T00731113  RH  025%=      5-min Rain = 0
KAD1 100813Z 19017KT 08/M11 A2983 RMK A01 T00751111  RH  025%=      5-min Rain = 0
KAD1 100814Z 19016KT 08/M11 A2983 RMK A01 T00761112  RH  025%=      5-min Rain = 0
KAD1 100815Z 19017KT 07/M12 A2983 RMK A01 T00731115  RH  025%=      5-min Rain = 0
KAD1 100816Z 19017KT 07/M11 A2983 RMK A01 T00721114  RH  025%=      5-min Rain = 0
KAD1 100817Z 19016KT 07/M11 A2983 RMK A01 T00711113  RH  026%=      5-min Rain = 0
KAD1 100818Z 19018KT 07/M11 A2983 RMK A01 T00721112  RH  026%=      5-min Rain = 0
KAD1 100819Z 19016KT 07/M11 A2983 RMK A01 T00741110  RH  026%=      5-min Rain = 0
KAD1 100820Z 19017KT 07/M11 A2983 RMK A01 T00741110  RH  026%=      5-min Rain = 0
KAD1 100821Z 19018KT 08/M11 A2983 RMK A01 T00751110  RH  026%=      5-min Rain = 0
KAD1 100822Z 19018KT 08/M11 A2983 RMK A01 T00761109  RH  026%=      5-min Rain = 0
KAD1 100823Z 19018KT 08/M11 A2983 RMK A01 T00761109  RH  025%=      5-min Rain = 0
KAD1 100824Z 20017KT 08/M11 A2983 RMK A01 T00771109  RH  025%=      5-min Rain = 0
KAD1 100825Z 19017KT 08/M11 A2983 RMK A01 T00771109  RH  025%=      5-min Rain = 0
KAD1 100826Z 20018KT 08/M11 A2983 RMK A01 T00771109  RH  026%=      5-min Rain = 0
KAD1 100827Z 20017KT 08/M11 A2983 RMK A01 T00781108  RH  026%=      5-min Rain = 0
KAD1 100828Z 20016KT 08/M11 A2983 RMK A01 T00781107  RH  026%=      5-min Rain = 0
KAD1 100829Z 20016KT 08/M11 A2983 RMK A01 T00781107  RH  026%=      5-min Rain = 0
KAD1 100830Z 20017KT 08/M11 A2983 RMK A01 T00781108  RH  025%=      5-min Rain = 0
KAD1 100831Z 20016KT 08/M11 A2983 RMK A01 T00781107  RH  026%=      5-min Rain = 0
KAD1 100832Z 20016KT 08/M11 A2983 RMK A01 T00781108  RH  026%=      5-min Rain = 0
KAD1 100833Z 20015KT 08/M11 A2983 RMK A01 T00771107  RH  026%=      5-min Rain = 0
KAD1 100834Z 19016KT 08/M11 A2983 RMK A01 T00771106  RH  026%=      5-min Rain = 0
KAD1 100835Z 20017KT 08/M11 A2983 RMK A01 T00771106  RH  026%=      5-min Rain = 0
KAD1 100836Z 20016KT 08/M11 A2983 RMK A01 T00781105  RH  026%=      5-min Rain = 0
KAD1 100837Z 20016KT 08/M11 A2983 RMK A01 T00791105  RH  026%=      5-min Rain = 0
KAD1 100838Z 20016KT 08/M11 A2983 RMK A01 T00801105  RH  026%=      5-min Rain = 0
KAD1 100839Z 19016KT 08/M11 A2983 RMK A01 T00791105  RH  026%=      5-min Rain = 0
KAD1 100840Z 19017KT 08/M11 A2982 RMK A01 T00791105  RH  026%=      5-min Rain = 0
KAD1 100841Z 20017KT 08/M11 A2983 RMK A01 T00791105  RH  026%=      5-min Rain = 0
KAD1 100842Z 20016KT 08/M11 A2983 RMK A01 T00791105  RH  026%=      5-min Rain = 0
KAD1 100843Z 20016KT 08/M11 A2982 RMK A01 T00791105  RH  026%=      5-min Rain = 0
KAD1 100844Z 19017KT 08/M11 A2982 RMK A01 T00791106  RH  026%=      5-min Rain = 0
KAD1 100845Z 20016KT 08/M11 A2982 RMK A01 T00781106  RH  026%=      5-min Rain = 0
KAD1 100846Z 19017KT 08/M11 A2982 RMK A01 T00791105  RH  026%=      5-min Rain = 0
KAD1 100847Z 19016KT 08/M11 A2982 RMK A01 T00791106  RH  026%=      5-min Rain = 0
KAD1 100848Z 19017KT 08/M11 A2982 RMK A01 T00781106  RH  026%=      5-min Rain = 0
KAD1 100849Z 20018KT 08/M11 A2982 RMK A01 T00791106  RH  026%=      5-min Rain = 0
KAD1 100850Z 19017KT 08/M11 A2982 RMK A01 T00791106  RH  026%=      5-min Rain = 0
KAD1 100851Z 19017KT 08/M11 A2982 RMK A01 T00801106  RH  026%=      5-min Rain = 0
KAD1 100852Z 20017KT 08/M11 A2982 RMK A01 T00801106  RH  025%=      5-min Rain = 0
KAD1 100853Z 19017KT 08/M11 A2982 RMK A01 T00791107  RH  025%=      5-min Rain = 0
KAD1 100854Z 19017KT 08/M11 A2982 RMK A01 T00791107  RH  026%=      5-min Rain = 0
KAD1 100855Z 19017KT 08/M11 A2982 RMK A01 T00791107  RH  026%=      5-min Rain = 0
KAD1 100856Z 19017KT 08/M11 A2982 RMK A01 T00781107  RH  026%=      5-min Rain = 0
KAD1 100857Z 19016KT 08/M11 A2982 RMK A01 T00771107  RH  026%=      5-min Rain = 0
KAD1 100858Z 19016KT 08/M11 A2982 RMK A01 T00761107  RH  026%=      5-min Rain = 0
KAD1 100859Z 19017KT 08/M11 A2982 RMK A01 T00761107  RH  026%=      5-min Rain = 0
KAD1 100900Z 19016KT 08/M11 A2982 RMK A01 T00761107  RH  026%=      5-min Rain = 0
KAD1 100901Z 19016KT 08/M11 A2982 RMK A01 T00761107  RH  026%=      5-min Rain = 0
KAD1 100902Z 19018KT 08/M11 A2982 RMK A01 T00761106  RH  026%=      5-min Rain = 0
KAD1 100903Z 19017KT 08/M11 A2982 RMK A01 T00761107  RH  026%=      5-min Rain = 0
KAD1 100904Z 19017KT 08/M11 A2982 RMK A01 T00771107  RH  026%=      5-min Rain = 0
KAD1 100905Z 19018KT 08/M11 A2982 RMK A01 T00771107  RH  026%=      5-min Rain = 0
KAD1 100906Z 19018KT 08/M11 A2982 RMK A01 T00771107  RH  026%=      5-min Rain = 0
KAD1 100907Z 19018KT 08/M11 A2981 RMK A01 T00781107  RH  026%=      5-min Rain = 0
KAD1 100908Z 19018KT 08/M11 A2981 RMK A01 T00771108  RH  026%=      5-min Rain = 0
KAD1 100909Z 19018KT 08/M11 A2981 RMK A01 T00771108  RH  026%=      5-min Rain = 0
KAD1 100910Z 19017KT 08/M11 A2981 RMK A01 T00761109  RH  026%=      5-min Rain = 0
KAD1 100911Z 19018KT 08/M11 A2981 RMK A01 T00761109  RH  026%=      5-min Rain = 0
KAD1 100912Z 19017KT 08/M11 A2981 RMK A01 T00761109  RH  026%=      5-min Rain = 0
KAD1 100913Z 19018KT 08/M11 A2982 RMK A01 T00761108  RH  026%=      5-min Rain = 0
KAD1 100914Z 19018KT 08/M11 A2982 RMK A01 T00761108  RH  026%=      5-min Rain = 0
KAD1 100915Z 19018KT 08/M11 A2982 RMK A01 T00761108  RH  026%=      5-min Rain = 0
KAD1 100916Z 19018KT 08/M11 A2982 RMK A01 T00771108  RH  026%=      5-min Rain = 0
KAD1 100917Z 20018KT 08/M11 A2982 RMK A01 T00771107  RH  026%=      5-min Rain = 0
KAD1 100918Z 20018KT 08/M11 A2982 RMK A01 T00791107  RH  026%=      5-min Rain = 0
KAD1 100919Z 20018KT 08/M11 A2982 RMK A01 T00791107  RH  025%=      5-min Rain = 0
KAD1 100920Z 19018KT 08/M11 A2981 RMK A01 T00791107  RH  025%=      5-min Rain = 0
KAD1 100921Z 20018KT 08/M11 A2982 RMK A01 T00791107  RH  025%=      5-min Rain = 0
KAD1 100922Z 20017KT 08/M11 A2982 RMK A01 T00791107  RH  025%=      5-min Rain = 0
KAD1 100923Z 20017KT 08/M11 A2982 RMK A01 T00791107  RH  025%=      5-min Rain = 0
KAD1 100924Z 19018KT 08/M11 A2982 RMK A01 T00791107  RH  026%=      5-min Rain = 0
KAD1 100925Z 20017KT 08/M11 A2982 RMK A01 T00801106  RH  025%=      5-min Rain = 0
KAD1 100926Z 20016KT 08/M11 A2982 RMK A01 T00801106  RH  025%=      5-min Rain = 0
KAD1 100927Z 20015KT 08/M11 A2982 RMK A01 T00791107  RH  026%=      5-min Rain = 0
KAD1 100928Z 20016KT 08/M11 A2982 RMK A01 T00791106  RH  026%=      5-min Rain = 0
KAD1 100929Z 20016KT 08/M11 A2982 RMK A01 T00801105  RH  026%=      5-min Rain = 0
KAD1 100930Z 20016KT 08/M11 A2982 RMK A01 T00821105  RH  025%=      5-min Rain = 0
KAD1 100931Z 20016KT 08/M11 A2982 RMK A01 T00831105  RH  025%=      5-min Rain = 0
KAD1 100932Z 19017KT 08/M11 A2982 RMK A01 T00831105  RH  025%=      5-min Rain = 0
KAD1 100933Z 19017KT 09/M10 A2982 RMK A01 T00851104  RH  025%=      5-min Rain = 0
KAD1 100934Z 19016KT 09/M10 A2982 RMK A01 T00861104  RH  025%=      5-min Rain = 0
KAD1 100935Z 20016KT 09/M11 A2982 RMK A01 T00851105  RH  025%=      5-min Rain = 0
KAD1 100936Z 19015KT 08/M11 A2982 RMK A01 T00841106  RH  025%=      5-min Rain = 0
KAD1 100937Z 19016KT 08/M11 A2982 RMK A01 T00841105  RH  025%=      5-min Rain = 0
KAD1 100938Z 19017KT 08/M11 A2982 RMK A01 T00831105  RH  025%=      5-min Rain = 0
KAD1 100939Z 20016KT 08/M11 A2982 RMK A01 T00841105  RH  025%=      5-min Rain = 0
KAD1 100940Z 20016KT 08/M11 A2982 RMK A01 T00831105  RH  025%=      5-min Rain = 0
KAD1 100941Z 20016KT 08/M11 A2982 RMK A01 T00811107  RH  025%=      5-min Rain = 0
KAD1 100942Z 20015KT 08/M11 A2982 RMK A01 T00801107  RH  025%=      5-min Rain = 0
KAD1 100943Z 20016KT 08/M11 A2982 RMK A01 T00781107  RH  026%=      5-min Rain = 0
KAD1 100944Z 20015KT 08/M11 A2982 RMK A01 T00781107  RH  026%=      5-min Rain = 0
KAD1 100945Z 20015KT 08/M11 A2982 RMK A01 T00771107  RH  026%=      5-min Rain = 0
KAD1 100946Z 20016KT 08/M11 A2982 RMK A01 T00771106  RH  026%=      5-min Rain = 0
KAD1 100947Z 20017KT 08/M11 A2982 RMK A01 T00771106  RH  026%=      5-min Rain = 0
KAD1 100948Z 20015KT 08/M11 A2982 RMK A01 T00781106  RH  026%=      5-min Rain = 0
KAD1 100949Z 20017KT 08/M11 A2982 RMK A01 T00781106  RH  026%=      5-min Rain = 0
KAD1 100950Z 20016KT 08/M11 A2982 RMK A01 T00781107  RH  026%=      5-min Rain = 0
KAD1 100951Z 20016KT 08/M11 A2982 RMK A01 T00771107  RH  026%=      5-min Rain = 0
KAD1 100952Z 20016KT 08/M11 A2982 RMK A01 T00761107  RH  026%=      5-min Rain = 0
KAD1 100953Z 20016KT 08/M11 A2982 RMK A01 T00771106  RH  026%=      5-min Rain = 0
KAD1 100954Z 20015KT 08/M11 A2982 RMK A01 T00771106  RH  026%=      5-min Rain = 0
KAD1 100955Z 20015KT 08/M11 A2982 RMK A01 T00781106  RH  026%=      5-min Rain = 0
KAD1 100956Z 20015KT 08/M11 A2982 RMK A01 T00771107  RH  026%=      5-min Rain = 0
KAD1 100957Z 20016KT 08/M11 A2982 RMK A01 T00771106  RH  026%=      5-min Rain = 0
KAD1 100958Z 20016KT 08/M11 A2982 RMK A01 T00771106  RH  026%=      5-min Rain = 0
KAD1 100959Z 20017KT 08/M11 A2982 RMK A01 T00771106  RH  026%=      5-min Rain = 0
KAD1 101000Z 20016KT 08/M11 A2982 RMK A01 T00771107  RH  026%=      5-min Rain = 0
KAD1 101001Z 20017KT 08/M11 A2982 RMK A01 T00771107  RH  026%=      5-min Rain = 0
KAD1 101002Z 21016KT 08/M11 A2982 RMK A01 T00761107  RH  026%=      5-min Rain = 0
KAD1 101003Z 20016KT 08/M11 A2982 RMK A01 T00761107  RH  026%=      5-min Rain = 0
KAD1 101004Z 20016KT 08/M11 A2982 RMK A01 T00771106  RH  026%=      5-min Rain = 0
KAD1 101005Z 20016KT 08/M11 A2982 RMK A01 T00771106  RH  026%=      5-min Rain = 0
KAD1 101006Z 20015KT 08/M11 A2982 RMK A01 T00771106  RH  026%=      5-min Rain = 0
KAD1 101007Z 20016KT 08/M11 A2982 RMK A01 T00771106  RH  026%=      5-min Rain = 0
KAD1 101008Z 20015KT 08/M11 A2982 RMK A01 T00781106  RH  026%=      5-min Rain = 0
KAD1 101009Z 20016KT 08/M11 A2983 RMK A01 T00791106  RH  026%=      5-min Rain = 0
KAD1 101010Z 20016KT 08/M11 A2983 RMK A01 T00791106  RH  026%=      5-min Rain = 0
KAD1 101011Z 20017KT 08/M11 A2982 RMK A01 T00791106  RH  026%=      5-min Rain = 0
KAD1 101012Z 20017KT 08/M11 A2982 RMK A01 T00801106  RH  025%=      5-min Rain = 0
KAD1 101013Z 20016KT 08/M11 A2982 RMK A01 T00801107  RH  025%=      5-min Rain = 0
KAD1 101014Z 20016KT 08/M11 A2982 RMK A01 T00801108  RH  025%=      5-min Rain = 0
KAD1 101015Z 20015KT 08/M11 A2982 RMK A01 T00791108  RH  025%=      5-min Rain = 0
KAD1 101016Z 20016KT 08/M11 A2982 RMK A01 T00781109  RH  025%=      5-min Rain = 0
KAD1 101017Z 21016KT 08/M11 A2982 RMK A01 T00781109  RH  025%=      5-min Rain = 0
KAD1 101018Z 20015KT 08/M11 A2982 RMK A01 T00781109  RH  025%=      5-min Rain = 0
KAD1 101019Z 20015KT 08/M11 A2982 RMK A01 T00781108  RH  025%=      5-min Rain = 0
KAD1 101020Z 20017KT 08/M11 A2982 RMK A01 T00771109  RH  025%=      5-min Rain = 0
KAD1 101021Z 20016KT 08/M11 A2982 RMK A01 T00781109  RH  025%=      5-min Rain = 0
KAD1 101022Z 20016KT 08/M11 A2982 RMK A01 T00781109  RH  025%=      5-min Rain = 0
KAD1 101023Z 20017KT 08/M11 A2982 RMK A01 T00791109  RH  025%=      5-min Rain = 0
KAD1 101024Z 20016KT 08/M11 A2982 RMK A01 T00791109  RH  025%=      5-min Rain = 0
KAD1 101025Z 20016KT 08/M11 A2983 RMK A01 T00801109  RH  025%=      5-min Rain = 0
KAD1 101026Z 20016KT 08/M11 A2983 RMK A01 T00811109  RH  025%=      5-min Rain = 0
KAD1 101027Z 20015KT 08/M11 A2983 RMK A01 T00801110  RH  025%=      5-min Rain = 0
KAD1 101028Z 22012KT 08/M11 A2983 RMK A01 T00791110  RH  025%=      5-min Rain = 0
KAD1 101029Z 25009KT 08/M11 A2983 RMK A01 T00781110  RH  025%=      5-min Rain = 0
KAD1 101030Z 25009KT 08/M11 A2983 RMK A01 T00771111  RH  025%=      5-min Rain = 0
KAD1 101031Z 25012KT 08/M11 A2983 RMK A01 T00771110  RH  025%=      5-min Rain = 0
KAD1 101032Z 25013KT 08/M11 A2983 RMK A01 T00801110  RH  025%=      5-min Rain = 0
KAD1 101033Z 24012KT 09/M11 A2983 RMK A01 T00861109  RH  024%=      5-min Rain = 0
KAD1 101034Z 22013KT 09/M11 A2983 RMK A01 T00911110  RH  023%=      5-min Rain = 0
KAD1 101035Z 22014KT 09/M11 A2983 RMK A01 T00921111  RH  023%=      5-min Rain = 0
KAD1 101036Z 22011KT 09/M11 A2983 RMK A01 T00921111  RH  022%=      5-min Rain = 0
KAD1 101037Z 24013KT 09/M11 A2983 RMK A01 T00911112  RH  023%=      5-min Rain = 0
KAD1 101038Z 24013KT 09/M11 A2983 RMK A01 T00941111  RH  022%=      5-min Rain = 0
KAD1 101039Z 25009KT 10/M11 A2984 RMK A01 T00971111  RH  022%=      5-min Rain = 0
KAD1 101040Z 24011KT 10/M11 A2984 RMK A01 T00961113  RH  022%=      5-min Rain = 0
KAD1 101041Z 23012KT 10/M11 A2983 RMK A01 T00951113  RH  022%=      5-min Rain = 0
KAD1 101042Z 23012KT 09/M11 A2983 RMK A01 T00941112  RH  022%=      5-min Rain = 0
KAD1 101043Z 23012KT 09/M11 A2983 RMK A01 T00941113  RH  022%=      5-min Rain = 0
KAD1 101044Z 23011KT 10/M11 A2983 RMK A01 T00961112  RH  022%=      5-min Rain = 0
KAD1 101045Z 24009KT 10/M11 A2983 RMK A01 T00971112  RH  022%=      5-min Rain = 0
KAD1 101046Z 25008KT 10/M11 A2983 RMK A01 T00961113  RH  022%=      5-min Rain = 0
KAD1 101047Z 26005KT 09/M12 A2983 RMK A01 T00931115  RH  022%=      5-min Rain = 0
KAD1 101048Z 28004KT 09/M12 A2983 RMK A01 T00901116  RH  022%=      5-min Rain = 0
KAD1 101049Z 28004KT 09/M12 A2983 RMK A01 T00871116  RH  023%=      5-min Rain = 0
KAD1 101050Z 27005KT 08/M12 A2983 RMK A01 T00841115  RH  023%=      5-min Rain = 0
KAD1 101051Z 26004KT 08/M12 A2983 RMK A01 T00801116  RH  023%=      5-min Rain = 0
KAD1 101052Z 26005KT 08/M12 A2983 RMK A01 T00781116  RH  024%=      5-min Rain = 0
KAD1 101053Z 27005KT 08/M12 A2983 RMK A01 T00771115  RH  024%=      5-min Rain = 0
KAD1 101054Z 26005KT 08/M12 A2983 RMK A01 T00751115  RH  024%=      5-min Rain = 0
KAD1 101055Z 27005KT 07/M12 A2983 RMK A01 T00731116  RH  025%=      5-min Rain = 0
KAD1 101056Z 28006KT 07/M12 A2984 RMK A01 T00711117  RH  025%=      5-min Rain = 0
KAD1 101057Z 28006KT 07/M12 A2984 RMK A01 T00681117  RH  025%=      5-min Rain = 0
KAD1 101058Z 28006KT 07/M12 A2984 RMK A01 T00661116  RH  026%=      5-min Rain = 0
KAD1 101059Z 29006KT 06/M12 A2984 RMK A01 T00641116  RH  026%=      5-min Rain = 0
KAD1 101100Z 28006KT 06/M12 A2984 RMK A01 T00631115  RH  027%=      5-min Rain = 0
KAD1 101101Z 28006KT 06/M12 A2984 RMK A01 T00621115  RH  027%=      5-min Rain = 0
KAD1 101102Z 28006KT 06/M12 A2984 RMK A01 T00621115  RH  027%=      5-min Rain = 0
KAD1 101103Z 28006KT 06/M12 A2984 RMK A01 T00611115  RH  027%=      5-min Rain = 0
KAD1 101104Z 27006KT 06/M12 A2983 RMK A01 T00611115  RH  027%=      5-min Rain = 0
KAD1 101105Z 27006KT 06/M12 A2983 RMK A01 T00601115  RH  027%=      5-min Rain = 0
KAD1 101106Z 27006KT 06/M12 A2983 RMK A01 T00591115  RH  027%=      5-min Rain = 0
KAD1 101107Z 27007KT 06/M12 A2983 RMK A01 T00581116  RH  027%=      5-min Rain = 0
KAD1 101108Z 27007KT 06/M12 A2983 RMK A01 T00571116  RH  028%=      5-min Rain = 0
KAD1 101109Z 26006KT 06/M12 A2983 RMK A01 T00561116  RH  028%=      5-min Rain = 0
KAD1 101110Z 26006KT 06/M12 A2983 RMK A01 T00561116  RH  028%=      5-min Rain = 0
KAD1 101111Z 26006KT 06/M12 A2983 RMK A01 T00551116  RH  028%=      5-min Rain = 0
KAD1 101112Z 26007KT 05/M12 A2983 RMK A01 T00541116  RH  028%=      5-min Rain = 0
KAD1 101113Z 26007KT 05/M12 A2983 RMK A01 T00531117  RH  028%=      5-min Rain = 0
KAD1 101114Z 26008KT 05/M12 A2983 RMK A01 T00511117  RH  029%=      5-min Rain = 0
KAD1 101115Z 26008KT 05/M12 A2983 RMK A01 T00491117  RH  029%=      5-min Rain = 0
KAD1 101116Z 26008KT 05/M12 A2983 RMK A01 T00491116  RH  029%=      5-min Rain = 0
KAD1 101117Z 26008KT 05/M12 A2983 RMK A01 T00481116  RH  029%=      5-min Rain = 0
KAD1 101118Z 26008KT 05/M12 A2983 RMK A01 T00471116  RH  029%=      5-min Rain = 0
KAD1 101119Z 26008KT 05/M12 A2983 RMK A01 T00461116  RH  030%=      5-min Rain = 0
KAD1 101120Z 26009KT 05/M12 A2983 RMK A01 T00461116  RH  030%=      5-min Rain = 0
KAD1 101121Z 26009KT 05/M12 A2983 RMK A01 T00461115  RH  030%=      5-min Rain = 0
KAD1 101122Z 25008KT 05/M12 A2983 RMK A01 T00461115  RH  030%=      5-min Rain = 0
KAD1 101123Z 25008KT 05/M12 A2983 RMK A01 T00461115  RH  030%=      5-min Rain = 0
KAD1 101124Z 25009KT 05/M12 A2983 RMK A01 T00461115  RH  030%=      5-min Rain = 0
KAD1 101125Z 25009KT 05/M12 A2983 RMK A01 T00451115  RH  030%=      5-min Rain = 0
KAD1 101126Z 25009KT 05/M12 A2983 RMK A01 T00451115  RH  030%=      5-min Rain = 0
KAD1 101127Z 25009KT 05/M12 A2983 RMK A01 T00451115  RH  030%=      5-min Rain = 0
KAD1 101128Z 25009KT 05/M12 A2983 RMK A01 T00461115  RH  030%=      5-min Rain = 0
KAD1 101129Z 25009KT 05/M11 A2983 RMK A01 T00471114  RH  030%=      5-min Rain = 0
KAD1 101130Z 25010KT 05/M11 A2983 RMK A01 T00471114  RH  030%=      5-min Rain = 0
KAD1 101131Z 25010KT 05/M11 A2983 RMK A01 T00481114  RH  030%=      5-min Rain = 0
KAD1 101132Z 25010KT 05/M11 A2983 RMK A01 T00471114  RH  030%=      5-min Rain = 0
KAD1 101133Z 25010KT 05/M11 A2983 RMK A01 T00471114  RH  030%=      5-min Rain = 0
KAD1 101134Z 25010KT 05/M11 A2983 RMK A01 T00481114  RH  030%=      5-min Rain = 0
KAD1 101135Z 25010KT 05/M11 A2983 RMK A01 T00491114  RH  030%=      5-min Rain = 0
KAD1 101136Z 25010KT 05/M11 A2983 RMK A01 T00511114  RH  029%=      5-min Rain = 0
KAD1 101137Z 25010KT 05/M11 A2983 RMK A01 T00521114  RH  029%=      5-min Rain = 0
KAD1 101138Z 25010KT 05/M11 A2983 RMK A01 T00541113  RH  029%=      5-min Rain = 0
KAD1 101139Z 25010KT 05/M11 A2983 RMK A01 T00541114  RH  029%=      5-min Rain = 0
KAD1 101140Z 25011KT 05/M11 A2983 RMK A01 T00541114  RH  029%=      5-min Rain = 0
KAD1 101141Z 25011KT 05/M11 A2983 RMK A01 T00541114  RH  029%=      5-min Rain = 0
KAD1 101142Z 25011KT 05/M12 A2983 RMK A01 T00531115  RH  029%=      5-min Rain = 0
KAD1 101143Z 25011KT 05/M12 A2983 RMK A01 T00531115  RH  029%=      5-min Rain = 0
KAD1 101144Z 25011KT 05/M11 A2983 RMK A01 T00531114  RH  029%=      5-min Rain = 0
KAD1 101145Z 25010KT 06/M11 A2983 RMK A01 T00551114  RH  028%=      5-min Rain = 0
KAD1 101146Z 25010KT 06/M11 A2983 RMK A01 T00571114  RH  028%=      5-min Rain = 0
KAD1 101147Z 25010KT 06/M12 A2983 RMK A01 T00571115  RH  028%=      5-min Rain = 0
KAD1 101148Z 25011KT 06/M12 A2983 RMK A01 T00581115  RH  028%=      5-min Rain = 0
KAD1 101149Z 25010KT 06/M12 A2983 RMK A01 T00581115  RH  028%=      5-min Rain = 0
KAD1 101150Z 25010KT 06/M12 A2983 RMK A01 T00581115  RH  028%=      5-min Rain = 0
KAD1 101151Z 25010KT 06/M12 A2983 RMK A01 T00581115  RH  028%=      5-min Rain = 0
KAD1 101152Z 25010KT 06/M12 A2983 RMK A01 T00581115  RH  028%=      5-min Rain = 0
KAD1 101153Z 25010KT 06/M12 A2983 RMK A01 T00581116  RH  028%=      5-min Rain = 0
KAD1 101154Z 25011KT 06/M12 A2983 RMK A01 T00581116  RH  027%=      5-min Rain = 0
KAD1 101155Z 25011KT 06/M12 A2983 RMK A01 T00581116  RH  027%=      5-min Rain = 0
KAD1 101156Z 25011KT 06/M12 A2983 RMK A01 T00581116  RH  027%=      5-min Rain = 0
KAD1 101157Z 25011KT 06/M12 A2983 RMK A01 T00601116  RH  027%=      5-min Rain = 0
KAD1 101158Z 25010KT 06/M12 A2983 RMK A01 T00621116  RH  027%=      5-min Rain = 0
KAD1 101159Z 25010KT 06/M12 A2983 RMK A01 T00631117  RH  026%=      5-min Rain = 0
KAD1 101200Z 25011KT 06/M12 A2983 RMK A01 T00641117  RH  026%=      5-min Rain = 0
KAD1 101201Z 25010KT 07/M12 A2983 RMK A01 T00651117  RH  026%=      5-min Rain = 0
KAD1 101202Z 25010KT 07/M12 A2983 RMK A01 T00651118  RH  026%=      5-min Rain = 0
KAD1 101203Z 25010KT 07/M12 A2983 RMK A01 T00651118  RH  026%=      5-min Rain = 0
KAD1 101204Z 25010KT 07/M12 A2983 RMK A01 T00651118  RH  026%=      5-min Rain = 0
KAD1 101205Z 26009KT 07/M12 A2983 RMK A01 T00651119  RH  026%=      5-min Rain = 0
KAD1 101206Z 25010KT 07/M12 A2983 RMK A01 T00651119  RH  025%=      5-min Rain = 0
KAD1 101207Z 25010KT 07/M12 A2983 RMK A01 T00661119  RH  025%=      5-min Rain = 0
KAD1 101208Z 25010KT 07/M12 A2983 RMK A01 T00671119  RH  025%=      5-min Rain = 0
KAD1 101209Z 25010KT 07/M12 A2983 RMK A01 T00681119  RH  025%=      5-min Rain = 0
KAD1 101210Z 25010KT 07/M12 A2983 RMK A01 T00681119  RH  025%=      5-min Rain = 0
KAD1 101211Z 25010KT 07/M12 A2983 RMK A01 T00681120  RH  025%=      5-min Rain = 0
KAD1 101212Z 25011KT 07/M12 A2983 RMK A01 T00681120  RH  025%=      5-min Rain = 0
KAD1 101213Z 25011KT 07/M12 A2983 RMK A01 T00691120  RH  025%=      5-min Rain = 0
KAD1 101214Z 25010KT 07/M12 A2983 RMK A01 T00701120  RH  024%=      5-min Rain = 0
KAD1 101215Z 25011KT 07/M12 A2983 RMK A01 T00711120  RH  024%=      5-min Rain = 0
KAD1 101216Z 25011KT 07/M12 A2983 RMK A01 T00721120  RH  024%=      5-min Rain = 0
KAD1 101217Z 25011KT 07/M12 A2983 RMK A01 T00721121  RH  024%=      5-min Rain = 0
KAD1 101218Z 25011KT 07/M12 A2983 RMK A01 T00721121  RH  024%=      5-min Rain = 0
KAD1 101219Z 25011KT 07/M12 A2983 RMK A01 T00721121  RH  024%=      5-min Rain = 0
KAD1 101220Z 25011KT 07/M12 A2983 RMK A01 T00721121  RH  024%=      5-min Rain = 0
KAD1 101221Z 25011KT 07/M12 A2983 RMK A01 T00711121  RH  024%=      5-min Rain = 0
KAD1 101222Z 25011KT 07/M12 A2983 RMK A01 T00711121  RH  024%=      5-min Rain = 0
KAD1 101223Z 25012KT 07/M12 A2983 RMK A01 T00711121  RH  024%=      5-min Rain = 0
KAD1 101224Z 25011KT 07/M12 A2983 RMK A01 T00721122  RH  024%=      5-min Rain = 0
KAD1 101225Z 25011KT 07/M12 A2983 RMK A01 T00731122  RH  024%=      5-min Rain = 0
KAD1 101226Z 25012KT 07/M12 A2983 RMK A01 T00731122  RH  023%=      5-min Rain = 0
KAD1 101227Z 25012KT 07/M12 A2983 RMK A01 T00741123  RH  023%=      5-min Rain = 0
KAD1 101228Z 25012KT 08/M12 A2983 RMK A01 T00761123  RH  023%=      5-min Rain = 0
KAD1 101229Z 25012KT 08/M12 A2983 RMK A01 T00761123  RH  023%=      5-min Rain = 0
KAD1 101230Z 25012KT 08/M12 A2983 RMK A01 T00761123  RH  023%=      5-min Rain = 0
KAD1 101231Z 25012KT 08/M12 A2983 RMK A01 T00761124  RH  023%=      5-min Rain = 0
KAD1 101232Z 25013KT 08/M13 A2983 RMK A01 T00771125  RH  022%=      5-min Rain = 0
KAD1 101233Z 25012KT 08/M13 A2983 RMK A01 T00771125  RH  022%=      5-min Rain = 0
KAD1 101234Z 25012KT 08/M13 A2983 RMK A01 T00781125  RH  022%=      5-min Rain = 0
KAD1 101235Z 25013KT 08/M13 A2983 RMK A01 T00781125  RH  022%=      5-min Rain = 0
KAD1 101236Z 25013KT 08/M13 A2983 RMK A01 T00791125  RH  022%=      5-min Rain = 0
KAD1 101237Z 25013KT 08/M13 A2983 RMK A01 T00791126  RH  022%=      5-min Rain = 0
KAD1 101238Z 25012KT 08/M13 A2983 RMK A01 T00791126  RH  022%=      5-min Rain = 0
KAD1 101239Z 25012KT 08/M13 A2983 RMK A01 T00791126  RH  022%=      5-min Rain = 0
KAD1 101240Z 25013KT 08/M13 A2983 RMK A01 T00791126  RH  022%=      5-min Rain = 0
KAD1 101241Z 25013KT 08/M13 A2983 RMK A01 T00781127  RH  022%=      5-min Rain = 0
KAD1 101242Z 25014KT 08/M13 A2983 RMK A01 T00791126  RH  022%=      5-min Rain = 0
KAD1 101243Z 25013KT 08/M13 A2983 RMK A01 T00781127  RH  022%=      5-min Rain = 0
KAD1 101244Z 25013KT 08/M13 A2983 RMK A01 T00791128  RH  022%=      5-min Rain = 0
KAD1 101245Z 25012KT 08/M13 A2983 RMK A01 T00791128  RH  022%=      5-min Rain = 0
KAD1 101246Z 25013KT 08/M13 A2983 RMK A01 T00781128  RH  022%=      5-min Rain = 0
KAD1 101247Z 25013KT 08/M13 A2983 RMK A01 T00781128  RH  022%=      5-min Rain = 0
KAD1 101248Z 25013KT 08/M13 A2983 RMK A01 T00791128  RH  022%=      5-min Rain = 0
KAD1 101249Z 25013KT 08/M13 A2983 RMK A01 T00791128  RH  022%=      5-min Rain = 0
KAD1 101250Z 25013KT 08/M13 A2984 RMK A01 T00791128  RH  022%=      5-min Rain = 0
KAD1 101251Z 25013KT 08/M13 A2984 RMK A01 T00791128  RH  022%=      5-min Rain = 0
KAD1 101252Z 25013KT 08/M13 A2983 RMK A01 T00791128  RH  022%=      5-min Rain = 0
KAD1 101253Z 25013KT 08/M13 A2983 RMK A01 T00791128  RH  022%=      5-min Rain = 0
KAD1 101254Z 25014KT 08/M13 A2983 RMK A01 T00791128  RH  022%=      5-min Rain = 0
KAD1 101255Z 25013KT 08/M13 A2983 RMK A01 T00791128  RH  022%=      5-min Rain = 0
KAD1 101256Z 25014KT 08/M13 A2983 RMK A01 T00791127  RH  022%=      5-min Rain = 0
KAD1 101257Z 25014KT 08/M13 A2983 RMK A01 T00791128  RH  022%=      5-min Rain = 0
KAD1 101258Z 25014KT 08/M13 A2983 RMK A01 T00781129  RH  022%=      5-min Rain = 0
KAD1 101259Z 24014KT 08/M13 A2983 RMK A01 T00781128  RH  022%=      5-min Rain = 0
KAD1 101300Z 25014KT 08/M13 A2983 RMK A01 T00781128  RH  022%=      5-min Rain = 0
KAD1 101301Z 25015KT 08/M13 A2983 RMK A01 T00781129  RH  021%=      5-min Rain = 0
KAD1 101302Z 24014KT 08/M13 A2983 RMK A01 T00791129  RH  021%=      5-min Rain = 0
KAD1 101303Z 25014KT 08/M13 A2983 RMK A01 T00781129  RH  021%=      5-min Rain = 0
KAD1 101304Z 25014KT 08/M13 A2983 RMK A01 T00781130  RH  021%=      5-min Rain = 0
KAD1 101305Z 25014KT 08/M13 A2983 RMK A01 T00771130  RH  022%=      5-min Rain = 0
KAD1 101306Z 25013KT 08/M13 A2983 RMK A01 T00771129  RH  022%=      5-min Rain = 0
KAD1 101307Z 25014KT 08/M13 A2983 RMK A01 T00771129  RH  022%=      5-min Rain = 0
KAD1 101308Z 25013KT 08/M13 A2983 RMK A01 T00761130  RH  022%=      5-min Rain = 0
KAD1 101309Z 25014KT 08/M13 A2983 RMK A01 T00761130  RH  022%=      5-min Rain = 0
KAD1 101310Z 25013KT 08/M13 A2983 RMK A01 T00751129  RH  022%=      5-min Rain = 0
KAD1 101311Z 25013KT 08/M13 A2983 RMK A01 T00751129  RH  022%=      5-min Rain = 0
KAD1 101312Z 25013KT 08/M13 A2983 RMK A01 T00751129  RH  022%=      5-min Rain = 0
KAD1 101313Z 25013KT 07/M13 A2983 RMK A01 T00741129  RH  022%=      5-min Rain = 0
KAD1 101314Z 25014KT 08/M13 A2983 RMK A01 T00751129  RH  022%=      5-min Rain = 0
KAD1 101315Z 25013KT 08/M13 A2983 RMK A01 T00751128  RH  022%=      5-min Rain = 0
KAD1 101316Z 25014KT 08/M13 A2983 RMK A01 T00761128  RH  022%=      5-min Rain = 0
KAD1 101317Z 24014KT 08/M13 A2983 RMK A01 T00761128  RH  022%=      5-min Rain = 0
KAD1 101318Z 25014KT 08/M13 A2983 RMK A01 T00761128  RH  022%=      5-min Rain = 0
KAD1 101319Z 25013KT 08/M13 A2983 RMK A01 T00771128  RH  022%=      5-min Rain = 0
KAD1 101320Z 25013KT 08/M13 A2983 RMK A01 T00771128  RH  022%=      5-min Rain = 0
KAD1 101321Z 25013KT 08/M13 A2983 RMK A01 T00771128  RH  022%=      5-min Rain = 0
KAD1 101322Z 25013KT 08/M13 A2983 RMK A01 T00771128  RH  022%=      5-min Rain = 0
KAD1 101323Z 25013KT 08/M13 A2984 RMK A01 T00761128  RH  022%=      5-min Rain = 0
KAD1 101324Z 25012KT 08/M13 A2984 RMK A01 T00761128  RH  022%=      5-min Rain = 0
KAD1 101325Z 25013KT 08/M13 A2983 RMK A01 T00761128  RH  022%=      5-min Rain = 0
KAD1 101326Z 25013KT 08/M13 A2983 RMK A01 T00761128  RH  022%=      5-min Rain = 0
KAD1 101327Z 25013KT 08/M13 A2983 RMK A01 T00751128  RH  022%=      5-min Rain = 0
KAD1 101328Z 25013KT 08/M13 A2983 RMK A01 T00751128  RH  022%=      5-min Rain = 0
KAD1 101329Z 25013KT 07/M13 A2984 RMK A01 T00741129  RH  022%=      5-min Rain = 0
KAD1 101330Z 25013KT 07/M13 A2984 RMK A01 T00741128  RH  022%=      5-min Rain = 0
KAD1 101331Z 25013KT 07/M13 A2984 RMK A01 T00741129  RH  022%=      5-min Rain = 0
KAD1 101332Z 25013KT 07/M13 A2984 RMK A01 T00731129  RH  022%=      5-min Rain = 0
KAD1 101333Z 25013KT 07/M13 A2984 RMK A01 T00721128  RH  022%=      5-min Rain = 0
KAD1 101334Z 25013KT 07/M13 A2984 RMK A01 T00731128  RH  023%=      5-min Rain = 0
KAD1 101335Z 25013KT 07/M13 A2984 RMK A01 T00721128  RH  023%=      5-min Rain = 0
KAD1 101336Z 25013KT 07/M13 A2984 RMK A01 T00721127  RH  023%=      5-min Rain = 0
KAD1 101337Z 25012KT 07/M13 A2984 RMK A01 T00731127  RH  023%=      5-min Rain = 0
KAD1 101338Z 25012KT 07/M13 A2984 RMK A01 T00731127  RH  023%=      5-min Rain = 0
KAD1 101339Z 25012KT 07/M13 A2984 RMK A01 T00731128  RH  022%=      5-min Rain = 0
KAD1 101340Z 25012KT 07/M13 A2985 RMK A01 T00731128  RH  022%=      5-min Rain = 0
KAD1 101341Z 25012KT 07/M13 A2985 RMK A01 T00731128  RH  022%=      5-min Rain = 0
KAD1 101342Z 25012KT 07/M13 A2985 RMK A01 T00731128  RH  022%=      5-min Rain = 0
KAD1 101343Z 25012KT 07/M13 A2985 RMK A01 T00731127  RH  023%=      5-min Rain = 0
KAD1 101344Z 25012KT 07/M13 A2985 RMK A01 T00721128  RH  023%=      5-min Rain = 0
KAD1 101345Z 25013KT 07/M13 A2985 RMK A01 T00721128  RH  023%=      5-min Rain = 0
KAD1 101346Z 25012KT 07/M13 A2985 RMK A01 T00731128  RH  022%=      5-min Rain = 0
KAD1 101347Z 25013KT 07/M13 A2985 RMK A01 T00741128  RH  022%=      5-min Rain = 0
KAD1 101348Z 25013KT 08/M13 A2985 RMK A01 T00751128  RH  022%=      5-min Rain = 0
KAD1 101349Z 25012KT 08/M13 A2985 RMK A01 T00751129  RH  022%=      5-min Rain = 0
KAD1 101350Z 25013KT 08/M13 A2985 RMK A01 T00761130  RH  022%=      5-min Rain = 0
KAD1 101351Z 25013KT 08/M13 A2985 RMK A01 T00771130  RH  021%=      5-min Rain = 0
KAD1 101352Z 25013KT 08/M13 A2985 RMK A01 T00791131  RH  021%=      5-min Rain = 0
KAD1 101353Z 25013KT 08/M13 A2985 RMK A01 T00801131  RH  021%=      5-min Rain = 0
KAD1 101354Z 25013KT 08/M13 A2985 RMK A01 T00801131  RH  021%=      5-min Rain = 0
KAD1 101355Z 25012KT 08/M13 A2985 RMK A01 T00801131  RH  021%=      5-min Rain = 0
KAD1 101356Z 25013KT 08/M13 A2985 RMK A01 T00811131  RH  021%=      5-min Rain = 0
KAD1 101357Z 25013KT 08/M13 A2985 RMK A01 T00811131  RH  021%=      5-min Rain = 0
KAD1 101358Z 25012KT 08/M13 A2985 RMK A01 T00821131  RH  021%=      5-min Rain = 0
KAD1 101359Z 25013KT 08/M13 A2985 RMK A01 T00821131  RH  021%=      5-min Rain = 0
KAD1 101400Z 25013KT 08/M13 A2985 RMK A01 T00821131  RH  021%=      5-min Rain = 0
KAD1 101401Z 25012KT 08/M13 A2985 RMK A01 T00821130  RH  021%=      5-min Rain = 0
KAD1 101402Z 25012KT 08/M13 A2985 RMK A01 T00821131  RH  021%=      5-min Rain = 0
KAD1 101403Z 25012KT 08/M13 A2985 RMK A01 T00811131  RH  021%=      5-min Rain = 0
KAD1 101404Z 25012KT 08/M13 A2985 RMK A01 T00821131  RH  021%=      5-min Rain = 0
KAD1 101405Z 25011KT 08/M13 A2985 RMK A01 T00821132  RH  021%=      5-min Rain = 0
KAD1 101406Z 25012KT 08/M13 A2985 RMK A01 T00821132  RH  020%=      5-min Rain = 0
KAD1 101407Z 25012KT 08/M13 A2985 RMK A01 T00831132  RH  020%=      5-min Rain = 0
KAD1 101408Z 25012KT 08/M13 A2985 RMK A01 T00831132  RH  020%=      5-min Rain = 0
KAD1 101409Z 25011KT 08/M13 A2985 RMK A01 T00841133  RH  020%=      5-min Rain = 0
KAD1 101410Z 25011KT 09/M13 A2985 RMK A01 T00851132  RH  020%=      5-min Rain = 0
KAD1 101411Z 25010KT 09/M13 A2985 RMK A01 T00871131  RH  020%=      5-min Rain = 0
KAD1 101412Z 25010KT 09/M13 A2985 RMK A01 T00881131  RH  020%=      5-min Rain = 0
KAD1 101413Z 25011KT 09/M13 A2985 RMK A01 T00901131  RH  019%=      5-min Rain = 0
KAD1 101414Z 25011KT 09/M13 A2985 RMK A01 T00921131  RH  019%=      5-min Rain = 0
KAD1 101415Z 25011KT 09/M13 A2985 RMK A01 T00941131  RH  019%=      5-min Rain = 0
KAD1 101416Z 25011KT 09/M13 A2985 RMK A01 T00941132  RH  019%=      5-min Rain = 0
KAD1 101417Z 25010KT 10/M13 A2985 RMK A01 T00951133  RH  019%=      5-min Rain = 0
KAD1 101418Z 25011KT 10/M13 A2985 RMK A01 T00961133  RH  018%=      5-min Rain = 0
KAD1 101419Z 25012KT 10/M13 A2985 RMK A01 T00971134  RH  018%=      5-min Rain = 0
KAD1 101420Z 25013KT 10/M14 A2985 RMK A01 T00971135  RH  018%=      5-min Rain = 0
KAD1 101421Z 26012KT 10/M14 A2985 RMK A01 T00971136  RH  018%=      5-min Rain = 0
KAD1 101422Z 25012KT 10/M14 A2985 RMK A01 T00981135  RH  018%=      5-min Rain = 0
KAD1 101423Z 25012KT 10/M14 A2985 RMK A01 T00991135  RH  018%=      5-min Rain = 0
KAD1 101424Z 26011KT 10/M13 A2985 RMK A01 T00991134  RH  018%=      5-min Rain = 0
KAD1 101425Z 25010KT 10/M13 A2985 RMK A01 T00981134  RH  018%=      5-min Rain = 0
KAD1 101426Z 26011KT 10/M13 A2985 RMK A01 T00981134  RH  018%=      5-min Rain = 0
KAD1 101427Z 26011KT 10/M13 A2986 RMK A01 T00981133  RH  018%=      5-min Rain = 0
KAD1 101428Z 26011KT 10/M13 A2986 RMK A01 T00971134  RH  018%=      5-min Rain = 0
KAD1 101429Z 25013KT 10/M13 A2986 RMK A01 T00981133  RH  018%=      5-min Rain = 0
KAD1 101430Z 25011KT 10/M13 A2986 RMK A01 T00991134  RH  018%=      5-min Rain = 0
KAD1 101431Z 25010KT 10/M13 A2986 RMK A01 T01001133  RH  018%=      5-min Rain = 0
KAD1 101432Z 25012KT 10/M13 A2986 RMK A01 T01011132  RH  018%=      5-min Rain = 0
KAD1 101433Z 26012KT 10/M13 A2986 RMK A01 T01011133  RH  018%=      5-min Rain = 0
KAD1 101434Z 25012KT 10/M13 A2986 RMK A01 T01021134  RH  018%=      5-min Rain = 0
KAD1 101435Z 26014KT 10/M13 A2986 RMK A01 T01021134  RH  018%=      5-min Rain = 0
KAD1 101436Z 25014KT 10/M13 A2986 RMK A01 T01021134  RH  018%=      5-min Rain = 0
KAD1 101437Z 25012KT 10/M14 A2986 RMK A01 T01021135  RH  017%=      5-min Rain = 0
KAD1 101438Z 26013KT 10/M13 A2986 RMK A01 T01031133  RH  018%=      5-min Rain = 0
KAD1 101439Z 26011KT 10/M13 A2986 RMK A01 T01031133  RH  018%=      5-min Rain = 0
KAD1 101440Z 26012KT 11/M13 A2986 RMK A01 T01051133  RH  017%=      5-min Rain = 0
KAD1 101441Z 26011KT 11/M13 A2986 RMK A01 T01061134  RH  017%=      5-min Rain = 0
KAD1 101442Z 26011KT 11/M13 A2986 RMK A01 T01061134  RH  017%=      5-min Rain = 0
KAD1 101443Z 26012KT 11/M13 A2986 RMK A01 T01061133  RH  017%=      5-min Rain = 0
KAD1 101444Z 26013KT 11/M14 A2986 RMK A01 T01061135  RH  017%=      5-min Rain = 0
KAD1 101445Z 26012KT 11/M14 A2986 RMK A01 T01061136  RH  017%=      5-min Rain = 0
KAD1 101446Z 26011KT 11/M13 A2986 RMK A01 T01071134  RH  017%=      5-min Rain = 0
KAD1 101447Z 26012KT 11/M13 A2986 RMK A01 T01081133  RH  017%=      5-min Rain = 0
KAD1 101448Z 26012KT 11/M13 A2986 RMK A01 T01081133  RH  017%=      5-min Rain = 0
KAD1 101449Z 26012KT 11/M13 A2986 RMK A01 T01081134  RH  017%=      5-min Rain = 0
KAD1 101450Z 26010KT 11/M13 A2986 RMK A01 T01091134  RH  017%=      5-min Rain = 0
KAD1 101451Z 26011KT 11/M13 A2986 RMK A01 T01091133  RH  017%=      5-min Rain = 0
KAD1 101452Z 27012KT 11/M13 A2986 RMK A01 T01091132  RH  017%=      5-min Rain = 0
KAD1 101453Z 27012KT 11/M13 A2987 RMK A01 T01091134  RH  017%=      5-min Rain = 0
KAD1 101454Z 27010KT 11/M14 A2987 RMK A01 T01091135  RH  017%=      5-min Rain = 0
KAD1 101455Z 27011KT 11/M13 A2987 RMK A01 T01111134  RH  017%=      5-min Rain = 0
KAD1 101456Z 27009KT 11/M13 A2987 RMK A01 T01121134  RH  016%=      5-min Rain = 0
KAD1 101457Z 28009KT 11/M13 A2987 RMK A01 T01131133  RH  016%=      5-min Rain = 0
KAD1 101458Z 27009KT 11/M13 A2987 RMK A01 T01141134  RH  016%=      5-min Rain = 0
KAD1 101459Z 27010KT 12/M13 A2987 RMK A01 T01151133  RH  016%=      5-min Rain = 0
KAD1 101500Z 27011KT 12/M13 A2987 RMK A01 T01161134  RH  016%=      5-min Rain = 0
KAD1 101501Z 28011KT 12/M13 A2987 RMK A01 T01161134  RH  016%=      5-min Rain = 0
KAD1 101502Z 27009KT 12/M13 A2987 RMK A01 T01151134  RH  016%=      5-min Rain = 0
KAD1 101503Z 27012KT 12/M14 A2987 RMK A01 T01161135  RH  016%=      5-min Rain = 0
KAD1 101504Z 27009KT 12/M13 A2987 RMK A01 T01171134  RH  016%=      5-min Rain = 0
KAD1 101505Z 27013KT 12/M13 A2987 RMK A01 T01201133  RH  016%=      5-min Rain = 0
KAD1 101506Z 27012KT 12/M14 A2987 RMK A01 T01221135  RH  015%=      5-min Rain = 0
KAD1 101507Z 26014KT 12/M14 A2987 RMK A01 T01231136  RH  015%=      5-min Rain = 0
KAD1 101508Z 27013KT 12/M14 A2987 RMK A01 T01231135  RH  015%=      5-min Rain = 0
KAD1 101509Z 27013KT 12/M14 A2987 RMK A01 T01241135  RH  015%=      5-min Rain = 0
KAD1 101510Z 27012KT 12/M14 A2987 RMK A01 T01241135  RH  015%=      5-min Rain = 0
KAD1 101511Z 26013KT 13/M14 A2987 RMK A01 T01251135  RH  015%=      5-min Rain = 0
KAD1 101512Z 27013KT 13/M14 A2987 RMK A01 T01251135  RH  015%=      5-min Rain = 0
KAD1 101513Z 27012KT 13/M14 A2987 RMK A01 T01261135  RH  015%=      5-min Rain = 0
KAD1 101514Z 27013KT 13/M13 A2987 RMK A01 T01271134  RH  015%=      5-min Rain = 0
KAD1 101515Z 27013KT 13/M14 A2987 RMK A01 T01271135  RH  015%=      5-min Rain = 0
KAD1 101516Z 27013KT 13/M14 A2988 RMK A01 T01271136  RH  015%=      5-min Rain = 0
KAD1 101517Z 26011G16KT 13/M14 A2988 RMK A01 T01271135  RH  015%=      5-min Rain = 0
KAD1 101518Z 27011G16KT 13/M13 A2988 RMK A01 T01291134  RH  015%=      5-min Rain = 0
KAD1 101519Z 28011KT 13/M13 A2988 RMK A01 T01311132  RH  015%=      5-min Rain = 0
KAD1 101520Z 27010KT 13/M13 A2988 RMK A01 T01321132  RH  015%=      5-min Rain = 0
KAD1 101521Z 27013KT 13/M13 A2988 RMK A01 T01321132  RH  015%=      5-min Rain = 0
KAD1 101522Z 27011KT 13/M13 A2988 RMK A01 T01301133  RH  015%=      5-min Rain = 0
KAD1 101523Z 27013KT 13/M13 A2988 RMK A01 T01301134  RH  015%=      5-min Rain = 0
KAD1 101524Z 28010KT 13/M14 A2988 RMK A01 T01311135  RH  014%=      5-min Rain = 0
KAD1 101525Z 27011KT 13/M13 A2988 RMK A01 T01321132  RH  015%=      5-min Rain = 0
KAD1 101526Z 27013KT 13/M13 A2988 RMK A01 T01331133  RH  014%=      5-min Rain = 0
KAD1 101527Z 27012KT 13/M13 A2988 RMK A01 T01341133  RH  014%=      5-min Rain = 0
KAD1 101528Z 27012KT 14/M13 A2988 RMK A01 T01351133  RH  014%=      5-min Rain = 0
KAD1 101529Z 27010KT 13/M13 A2988 RMK A01 T01341132  RH  014%=      5-min Rain = 0
KAD1 101530Z 27011KT 14/M13 A2988 RMK A01 T01351131  RH  014%=      5-min Rain = 0
KAD1 101531Z 27012KT 14/M13 A2988 RMK A01 T01361132  RH  014%=      5-min Rain = 0
KAD1 101532Z 27011KT 14/M13 A2988 RMK A01 T01361133  RH  014%=      5-min Rain = 0
KAD1 101533Z 27011KT 14/M13 A2988 RMK A01 T01361132  RH  014%=      5-min Rain = 0
KAD1 101534Z 28011KT 14/M13 A2988 RMK A01 T01381131  RH  014%=      5-min Rain = 0
KAD1 101535Z 27012KT 14/M13 A2988 RMK A01 T01381132  RH  014%=      5-min Rain = 0
KAD1 101536Z 27012KT 14/M13 A2988 RMK A01 T01381132  RH  014%=      5-min Rain = 0
KAD1 101537Z 27013KT 14/M13 A2988 RMK A01 T01391132  RH  014%=      5-min Rain = 0
KAD1 101538Z 27013KT 14/M13 A2988 RMK A01 T01391133  RH  014%=      5-min Rain = 0
KAD1 101539Z 27014KT 14/M13 A2988 RMK A01 T01401134  RH  014%=      5-min Rain = 0
KAD1 101540Z 27013KT 14/M13 A2988 RMK A01 T01401134  RH  014%=      5-min Rain = 0
KAD1 101541Z 27013KT 14/M13 A2988 RMK A01 T01401134  RH  014%=      5-min Rain = 0
KAD1 101542Z 27011KT 14/M13 A2988 RMK A01 T01411132  RH  014%=      5-min Rain = 0
KAD1 101543Z 27010KT 14/M13 A2988 RMK A01 T01421131  RH  014%=      5-min Rain = 0
KAD1 101544Z 27009KT 14/M13 A2988 RMK A01 T01431129  RH  014%=      5-min Rain = 0
KAD1 101545Z 28010KT 15/M13 A2988 RMK A01 T01451129  RH  014%=      5-min Rain = 0
KAD1 101546Z 29011KT 15/M13 A2988 RMK A01 T01471132  RH  013%=      5-min Rain = 0
KAD1 101547Z 29010KT 15/M13 A2988 RMK A01 T01491129  RH  013%=      5-min Rain = 0
KAD1 101548Z 28010KT 15/M13 A2988 RMK A01 T01511130  RH  013%=      5-min Rain = 0
KAD1 101549Z 28014KT 15/M13 A2988 RMK A01 T01531132  RH  013%=      5-min Rain = 0
KAD1 101550Z 28014KT 15/M14 A2988 RMK A01 T01531135  RH  012%=      5-min Rain = 0
KAD1 101551Z 29012KT 15/M14 A2988 RMK A01 T01521135  RH  013%=      5-min Rain = 0
KAD1 101552Z 29010KT 15/M13 A2988 RMK A01 T01521134  RH  013%=      5-min Rain = 0
KAD1 101553Z 28008KT 15/M13 A2988 RMK A01 T01521132  RH  013%=      5-min Rain = 0
KAD1 101554Z 27011KT 15/M13 A2988 RMK A01 T01521131  RH  013%=      5-min Rain = 0
KAD1 101555Z 28009KT 15/M13 A2988 RMK A01 T01531131  RH  013%=      5-min Rain = 0
KAD1 101556Z 28010KT 16/M13 A2988 RMK A01 T01551130  RH  013%=      5-min Rain = 0
KAD1 101557Z 29012KT 16/M13 A2988 RMK A01 T01571132  RH  012%=      5-min Rain = 0
KAD1 101558Z 29011KT 16/M13 A2988 RMK A01 T01591134  RH  012%=      5-min Rain = 0
KAD1 101559Z 29013KT 16/M14 A2988 RMK A01 T01611136  RH  012%=      5-min Rain = 0
KAD1 101600Z 28013KT 16/M14 A2987 RMK A01 T01631137  RH  011%=      5-min Rain = 0
KAD1 101601Z 28014KT 16/M14 A2988 RMK A01 T01641137  RH  011%=      5-min Rain = 0
KAD1 101602Z 28013KT 16/M14 A2988 RMK A01 T01641137  RH  011%=      5-min Rain = 0
KAD1 101603Z 28012KT 16/M14 A2988 RMK A01 T01631139  RH  011%=      5-min Rain = 0
KAD1 101604Z 28010KT 16/M14 A2988 RMK A01 T01611138  RH  012%=      5-min Rain = 0
KAD1 101605Z 28009KT 16/M14 A2988 RMK A01 T01611137  RH  012%=      5-min Rain = 0
KAD1 101606Z 29009KT 16/M13 A2988 RMK A01 T01611133  RH  012%=      5-min Rain = 0
KAD1 101607Z 28008KT 16/M14 A2988 RMK A01 T01641135  RH  012%=      5-min Rain = 0
KAD1 101608Z 28008G13KT 17/M13 A2988 RMK A01 T01681133  RH  012%=      5-min Rain = 0
KAD1 101609Z 28011KT 17/M14 A2988 RMK A01 T01701139  RH  011%=      5-min Rain = 0
KAD1 101610Z 27014KT 17/M14 A2988 RMK A01 T01691144  RH  010%=      5-min Rain = 0
KAD1 101611Z 28011KT 17/M14 A2988 RMK A01 T01701144  RH  010%=      5-min Rain = 0
KAD1 101612Z 28013KT 17/M14 A2988 RMK A01 T01731144  RH  010%=      5-min Rain = 0
KAD1 101613Z 29014KT 17/M15 A2988 RMK A01 T01741147  RH  010%=      5-min Rain = 0
KAD1 101614Z 28014KT 17/M15 A2988 RMK A01 T01741147  RH  010%=      5-min Rain = 0
KAD1 101615Z 28015KT 17/M15 A2988 RMK A01 T01731148  RH  010%=      5-min Rain = 0
KAD1 101616Z 27013KT 17/M15 A2988 RMK A01 T01731148  RH  010%=      5-min Rain = 0
KAD1 101617Z 28014KT 17/M15 A2988 RMK A01 T01741146  RH  010%=      5-min Rain = 0
KAD1 101618Z 28014KT 17/M15 A2987 RMK A01 T01741146  RH  010%=      5-min Rain = 0
KAD1 101619Z 28015KT 18/M15 A2987 RMK A01 T01751148  RH  010%=      5-min Rain = 0
KAD1 101620Z 28015KT 18/M15 A2987 RMK A01 T01751149  RH  010%=      5-min Rain = 0
KAD1 101621Z 28013KT 18/M15 A2987 RMK A01 T01761147  RH  010%=      5-min Rain = 0
KAD1 101622Z 27014KT 18/M15 A2987 RMK A01 T01771145  RH  010%=      5-min Rain = 0
KAD1 101623Z 28015KT 18/M15 A2987 RMK A01 T01781145  RH  010%=      5-min Rain = 0
KAD1 101624Z 28013KT 18/M15 A2987 RMK A01 T01781145  RH  010%=      5-min Rain = 0
KAD1 101625Z 29016KT 18/M15 A2987 RMK A01 T01791146  RH  010%=      5-min Rain = 0
KAD1 101626Z 28015KT 18/M15 A2987 RMK A01 T01801150  RH  009%=      5-min Rain = 0
KAD1 101627Z 28015KT 18/M15 A2987 RMK A01 T01801150  RH  009%=      5-min Rain = 0
KAD1 101628Z 29015KT 18/M15 A2987 RMK A01 T01801150  RH  009%=      5-min Rain = 0
KAD1 101629Z 29014KT 18/M15 A2987 RMK A01 T01801150  RH  009%=      5-min Rain = 0
KAD1 101630Z 29014KT 18/M15 A2987 RMK A01 T01811153  RH  009%=      5-min Rain = 0
KAD1 101631Z 29015KT 18/M16 A2987 RMK A01 T01811155  RH  009%=      5-min Rain = 0
KAD1 101632Z 29013KT 18/M16 A2987 RMK A01 T01821155  RH  009%=      5-min Rain = 0
KAD1 101633Z 30013KT 19/M15 A2987 RMK A01 T01851152  RH  009%=      5-min Rain = 0
KAD1 101634Z 30016KT 19/M15 A2987 RMK A01 T01871153  RH  009%=      5-min Rain = 0
KAD1 101635Z 30013KT 19/M15 A2987 RMK A01 T01881153  RH  009%=      5-min Rain = 0
KAD1 101636Z 30014KT 19/M15 A2987 RMK A01 T01881154  RH  009%=      5-min Rain = 0
KAD1 101637Z 29014KT 19/M16 A2987 RMK A01 T01861158  RH  008%=      5-min Rain = 0
KAD1 101638Z 29013G18KT 18/M16 A2987 RMK A01 T01841158  RH  008%=      5-min Rain = 0
KAD1 101639Z 29016KT 19/M16 A2987 RMK A01 T01861155  RH  009%=      5-min Rain = 0
KAD1 101640Z 30013KT 19/M16 A2987 RMK A01 T01861156  RH  009%=      5-min Rain = 0
KAD1 101641Z 30011KT 19/M15 A2987 RMK A01 T01851154  RH  009%=      5-min Rain = 0
KAD1 101642Z 28013KT 19/M15 A2987 RMK A01 T01861151  RH  009%=      5-min Rain = 0
KAD1 101643Z 28013KT 19/M15 A2987 RMK A01 T01871151  RH  009%=      5-min Rain = 0
KAD1 101644Z 29012G17KT 19/M15 A2987 RMK A01 T01881149  RH  009%=      5-min Rain = 0
KAD1 101645Z 29011KT 19/M15 A2987 RMK A01 T01901150  RH  009%=      5-min Rain = 0
KAD1 101646Z 29012KT 19/M15 A2987 RMK A01 T01891151  RH  009%=      5-min Rain = 0
KAD1 101647Z 28014KT 19/M15 A2987 RMK A01 T01881151  RH  009%=      5-min Rain = 0
KAD1 101648Z 28010KT 19/M15 A2987 RMK A01 T01891151  RH  009%=      5-min Rain = 0
KAD1 101649Z 30013KT 19/M15 A2987 RMK A01 T01891150  RH  009%=      5-min Rain = 0
KAD1 101650Z 29014KT 19/M15 A2987 RMK A01 T01901151  RH  009%=      5-min Rain = 0
KAD1 101651Z 28013KT 19/M15 A2987 RMK A01 T01901151  RH  009%=      5-min Rain = 0
KAD1 101652Z 29013KT 19/M15 A2987 RMK A01 T01911151  RH  009%=      5-min Rain = 0
KAD1 101653Z 29011KT 19/M15 A2987 RMK A01 T01911149  RH  009%=      5-min Rain = 0
KAD1 101654Z 28013KT 19/M15 A2987 RMK A01 T01931147  RH  009%=      5-min Rain = 0
KAD1 101655Z 28013KT 20/M15 A2987 RMK A01 T01951146  RH  009%=      5-min Rain = 0
KAD1 101656Z 28014KT 20/M15 A2987 RMK A01 T01961146  RH  009%=      5-min Rain = 0
KAD1 101657Z 28014KT 20/M15 A2987 RMK A01 T01961148  RH  009%=      5-min Rain = 0
KAD1 101658Z 29014KT 20/M15 A2987 RMK A01 T01961150  RH  008%=      5-min Rain = 0
KAD1 101659Z 29012KT 20/M15 A2987 RMK A01 T01951151  RH  008%=      5-min Rain = 0
KAD1 101700Z 28014KT 20/M15 A2987 RMK A01 T01961148  RH  009%=      5-min Rain = 0
KAD1 101701Z 29013KT 20/M15 A2987 RMK A01 T01961150  RH  008%=      5-min Rain = 0
KAD1 101702Z 30014KT 20/M15 A2987 RMK A01 T01961149  RH  008%=      5-min Rain = 0
KAD1 101703Z 28014KT 20/M15 A2987 RMK A01 T01971151  RH  008%=      5-min Rain = 0
KAD1 101704Z 28013KT 20/M15 A2987 RMK A01 T01971151  RH  008%=      5-min Rain = 0
KAD1 101705Z 28016KT 20/M15 A2987 RMK A01 T01981150  RH  008%=      5-min Rain = 0
KAD1 101706Z 28010G15KT 20/M15 A2987 RMK A01 T01981150  RH  008%=      5-min Rain = 0
KAD1 101707Z 27011KT 20/M15 A2987 RMK A01 T01981147  RH  008%=      5-min Rain = 0
KAD1 101708Z 27012KT 20/M15 A2987 RMK A01 T01981150  RH  008%=      5-min Rain = 0
KAD1 101709Z 28012KT 20/M15 A2987 RMK A01 T01971149  RH  008%=      5-min Rain = 0
KAD1 101710Z 27012KT 20/M15 A2987 RMK A01 T01991147  RH  008%=      5-min Rain = 0
KAD1 101711Z 28013KT 20/M15 A2987 RMK A01 T01991148  RH  008%=      5-min Rain = 0
KAD1 101712Z 28017KT 20/M15 A2987 RMK A01 T01981149  RH  008%=      5-min Rain = 0
KAD1 101713Z 27014KT 20/M15 A2987 RMK A01 T01961152  RH  008%=      5-min Rain = 0
KAD1 101714Z 28015KT 20/M15 A2987 RMK A01 T01961150  RH  008%=      5-min Rain = 0
KAD1 101715Z 28015KT 20/M15 A2987 RMK A01 T01971149  RH  008%=      5-min Rain = 0
KAD1 101716Z 28013KT 20/M15 A2987 RMK A01 T01951150  RH  008%=      5-min Rain = 0
KAD1 101717Z 27015KT 20/M15 A2987 RMK A01 T01961147  RH  009%=      5-min Rain = 0
KAD1 101718Z 27015KT 20/M15 A2987 RMK A01 T01961149  RH  008%=      5-min Rain = 0
KAD1 101719Z 28014KT 20/M15 A2987 RMK A01 T01961149  RH  008%=      5-min Rain = 0
KAD1 101720Z 28015G20KT 20/M15 A2987 RMK A01 T01991146  RH  009%=      5-min Rain = 0
KAD1 101721Z 29013KT 20/M15 A2987 RMK A01 T02001147  RH  008%=      5-min Rain = 0
KAD1 101722Z 28014KT 20/M15 A2987 RMK A01 T01991149  RH  008%=      5-min Rain = 0
KAD1 101723Z 29013KT 20/M15 A2987 RMK A01 T01981148  RH  008%=      5-min Rain = 0
KAD1 101724Z 29012KT 20/M15 A2987 RMK A01 T01991148  RH  008%=      5-min Rain = 0
KAD1 101725Z 29011KT 20/M15 A2987 RMK A01 T01991148  RH  008%=      5-min Rain = 0
KAD1 101726Z 28016KT 20/M15 A2987 RMK A01 T02011145  RH  008%=      5-min Rain = 0
KAD1 101727Z 28014G19KT 20/M15 A2987 RMK A01 T02001147  RH  008%=      5-min Rain = 0
KAD1 101728Z 28016KT 20/M15 A2987 RMK A01 T01991148  RH  008%=      5-min Rain = 0
KAD1 101729Z 28013KT 20/M15 A2987 RMK A01 T01981148  RH  008%=      5-min Rain = 0
KAD1 101730Z 28013G18KT 20/M14 A2987 RMK A01 T01991144  RH  009%=      5-min Rain = 0
KAD1 101731Z 27015KT 20/M14 A2987 RMK A01 T02011143  RH  009%=      5-min Rain = 0
KAD1 101732Z 28014KT 20/M15 A2987 RMK A01 T02001145  RH  009%=      5-min Rain = 0
KAD1 101733Z 27012KT 20/M14 A2987 RMK A01 T02001144  RH  009%=      5-min Rain = 0
KAD1 101734Z 28017KT 20/M15 A2987 RMK A01 T02011146  RH  008%=      5-min Rain = 0
KAD1 101735Z 29016KT 20/M15 A2987 RMK A01 T02021150  RH  008%=      5-min Rain = 0
KAD1 101736Z 29013G19KT 20/M15 A2987 RMK A01 T02021149  RH  008%=      5-min Rain = 0
KAD1 101737Z 28016KT 20/M15 A2987 RMK A01 T02041146  RH  008%=      5-min Rain = 0
KAD1 101738Z 28015KT 20/M15 A2987 RMK A01 T02041149  RH  008%=      5-min Rain = 0
KAD1 101739Z 29016KT 20/M15 A2987 RMK A01 T02041150  RH  008%=      5-min Rain = 0
KAD1 101740Z 29014KT 21/M15 A2987 RMK A01 T02051149  RH  008%=      5-min Rain = 0
KAD1 101741Z 30015KT 21/M15 A2987 RMK A01 T02051149  RH  008%=      5-min Rain = 0
KAD1 101742Z 30012KT 20/M15 A2987 RMK A01 T02041151  RH  008%=      5-min Rain = 0
KAD1 101743Z 30014KT 21/M15 A2987 RMK A01 T02051146  RH  008%=      5-min Rain = 0
KAD1 101744Z 28012KT 21/M15 A2987 RMK A01 T02061146  RH  008%=      5-min Rain = 0
KAD1 101745Z 28016KT 21/M15 A2987 RMK A01 T02071147  RH  008%=      5-min Rain = 0
KAD1 101746Z 30018KT 21/M15 A2987 RMK A01 T02071148  RH  008%=      5-min Rain = 0
KAD1 101747Z 30015KT 21/M15 A2987 RMK A01 T02051150  RH  008%=      5-min Rain = 0
KAD1 101748Z 30012KT 20/M15 A2987 RMK A01 T02031149  RH  008%=      5-min Rain = 0
KAD1 101749Z 30012KT 20/M15 A2987 RMK A01 T02041148  RH  008%=      5-min Rain = 0
KAD1 101750Z 30011KT 20/M15 A2987 RMK A01 T02041147  RH  008%=      5-min Rain = 0
KAD1 101751Z 30013KT 21/M15 A2987 RMK A01 T02081145  RH  008%=      5-min Rain = 0
KAD1 101752Z 30012KT 21/M15 A2987 RMK A01 T02111147  RH  008%=      5-min Rain = 0
KAD1 101753Z 30013KT 21/M15 A2987 RMK A01 T02111150  RH  008%=      5-min Rain = 0
KAD1 101754Z 29014KT 21/M15 A2987 RMK A01 T02111148  RH  008%=      5-min Rain = 0
KAD1 101755Z 29014KT 21/M15 A2987 RMK A01 T02121148  RH  008%=      5-min Rain = 0
KAD1 101756Z 30014KT 21/M15 A2987 RMK A01 T02121148  RH  008%=      5-min Rain = 0
KAD1 101757Z 30014KT 21/M15 A2987 RMK A01 T02131150  RH  008%=      5-min Rain = 0
KAD1 101758Z 29013KT 21/M15 A2987 RMK A01 T02131149  RH  008%=      5-min Rain = 0
KAD1 101759Z 29011KT 21/M15 A2987 RMK A01 T02141148  RH  008%=      5-min Rain = 0
KAD1 101800Z 30010KT 21/M15 A2987 RMK A01 T02141147  RH  008%=      5-min Rain = 0
KAD1 101801Z 29012KT 22/M15 A2987 RMK A01 T02151145  RH  008%=      5-min Rain = 0
KAD1 101802Z 29014G19KT 22/M15 A2987 RMK A01 T02161145  RH  008%=      5-min Rain = 0
KAD1 101803Z 28016KT 22/M15 A2987 RMK A01 T02171146  RH  008%=      5-min Rain = 0
KAD1 101804Z 29015G20KT 22/M15 A2987 RMK A01 T02161148  RH  008%=      5-min Rain = 0
KAD1 101805Z 29011KT 21/M15 A2987 RMK A01 T02141148  RH  008%=      5-min Rain = 0
KAD1 101806Z 29009KT 22/M15 A2987 RMK A01 T02151145  RH  008%=      5-min Rain = 0
KAD1 101807Z 28014G19KT 22/M15 A2987 RMK A01 T02161147  RH  008%=      5-min Rain = 0
KAD1 101808Z 28015KT 22/M15 A2987 RMK A01 T02161149  RH  008%=      5-min Rain = 0
KAD1 101809Z 28014G19KT 22/M15 A2987 RMK A01 T02151149  RH  008%=      5-min Rain = 0
KAD1 101810Z 29012KT 21/M15 A2986 RMK A01 T02131151  RH  008%=      5-min Rain = 0
KAD1 101811Z 30011KT 21/M15 A2986 RMK A01 T02141146  RH  008%=      5-min Rain = 0
KAD1 101812Z 31012KT 22/M15 A2986 RMK A01 T02151146  RH  008%=      5-min Rain = 0
KAD1 101813Z 29013KT 22/M15 A2987 RMK A01 T02161147  RH  008%=      5-min Rain = 0
KAD1 101814Z 29009KT 21/M15 A2986 RMK A01 T02141150  RH  008%=      5-min Rain = 0
KAD1 101815Z 29013KT 21/M15 A2986 RMK A01 T02131147  RH  008%=      5-min Rain = 0
KAD1 101816Z 28015KT 22/M15 A2986 RMK A01 T02151145  RH  008%=      5-min Rain = 0
KAD1 101817Z 28015KT 22/M15 A2986 RMK A01 T02161147  RH  008%=      5-min Rain = 0
KAD1 101818Z 28015KT 22/M15 A2986 RMK A01 T02151147  RH  008%=      5-min Rain = 0
KAD1 101819Z 28014KT 21/M15 A2986 RMK A01 T02141147  RH  008%=      5-min Rain = 0
KAD1 101820Z 29014KT 21/M15 A2986 RMK A01 T02141146  RH  008%=      5-min Rain = 0
KAD1 101821Z 31011KT 22/M14 A2986 RMK A01 T02161144  RH  008%=      5-min Rain = 0
KAD1 101822Z 29010G15KT 22/M15 A2986 RMK A01 T02171147  RH  008%=      5-min Rain = 0
KAD1 101823Z 29016KT 22/M14 A2986 RMK A01 T02171144  RH  008%=      5-min Rain = 0
KAD1 101824Z 30013KT 22/M15 A2986 RMK A01 T02171145  RH  008%=      5-min Rain = 0
KAD1 101825Z 31010KT 22/M14 A2986 RMK A01 T02161144  RH  008%=      5-min Rain = 0
KAD1 101826Z 30011G16KT 22/M14 A2986 RMK A01 T02171142  RH  008%=      5-min Rain = 0
KAD1 101827Z 29011KT 22/M14 A2986 RMK A01 T02191143  RH  008%=      5-min Rain = 0
KAD1 101828Z 30011KT 22/M15 A2986 RMK A01 T02181147  RH  008%=      5-min Rain = 0
KAD1 101829Z 30015G20KT 22/M14 A2986 RMK A01 T02161144  RH  008%=      5-min Rain = 0
KAD1 101830Z 32016G21KT 22/M14 A2987 RMK A01 T02171142  RH  008%=      5-min Rain = 0
KAD1 101831Z 31007KT 22/M14 A2986 RMK A01 T02171144  RH  008%=      5-min Rain = 0
KAD1 101832Z 31015KT 21/M14 A2986 RMK A01 T02141143  RH  008%=      5-min Rain = 0
KAD1 101833Z 31016KT 21/M14 A2987 RMK A01 T02141142  RH  008%=      5-min Rain = 0
KAD1 101834Z 32016KT 22/M14 A2987 RMK A01 T02161142  RH  008%=      5-min Rain = 0
KAD1 101835Z 32012KT 22/M14 A2986 RMK A01 T02161143  RH  008%=      5-min Rain = 0
KAD1 101836Z 31010KT 22/M14 A2986 RMK A01 T02171139  RH  008%=      5-min Rain = 0
KAD1 101837Z 31013KT 22/M14 A2986 RMK A01 T02191138  RH  008%=      5-min Rain = 0
KAD1 101838Z 31015KT 22/M14 A2986 RMK A01 T02201140  RH  008%=      5-min Rain = 0
KAD1 101839Z 31014KT 22/M14 A2986 RMK A01 T02201141  RH  008%=      5-min Rain = 0
KAD1 101840Z 32011KT 22/M14 A2986 RMK A01 T02181143  RH  008%=      5-min Rain = 0
KAD1 101841Z 35010KT 22/M14 A2986 RMK A01 T02171143  RH  008%=      5-min Rain = 0
KAD1 101842Z 32010KT 22/M14 A2986 RMK A01 T02191139  RH  008%=      5-min Rain = 0
KAD1 101843Z 30014G19KT 22/M14 A2986 RMK A01 T02211140  RH  008%=      5-min Rain = 0
KAD1 101844Z 30012KT 22/M14 A2986 RMK A01 T02201141  RH  008%=      5-min Rain = 0
KAD1 101845Z 31010KT 22/M14 A2986 RMK A01 T02191140  RH  008%=      5-min Rain = 0
KAD1 101846Z 32011KT 22/M14 A2986 RMK A01 T02191139  RH  008%=      5-min Rain = 0
KAD1 101847Z 31013KT 22/M14 A2986 RMK A01 T02201141  RH  008%=      5-min Rain = 0
KAD1 101848Z 32012KT 22/M14 A2986 RMK A01 T02181144  RH  008%=      5-min Rain = 0
KAD1 101849Z 31014KT 22/M14 A2986 RMK A01 T02161142  RH  008%=      5-min Rain = 0
KAD1 101850Z 30014KT 22/M14 A2986 RMK A01 T02161141  RH  008%=      5-min Rain = 0
KAD1 101851Z 30011G16KT 22/M14 A2985 RMK A01 T02161143  RH  008%=      5-min Rain = 0
KAD1 101852Z 29015KT 22/M14 A2986 RMK A01 T02161140  RH  008%=      5-min Rain = 0
KAD1 101853Z 29011KT 22/M14 A2985 RMK A01 T02161142  RH  008%=      5-min Rain = 0
KAD1 101854Z 30009KT 22/M14 A2985 RMK A01 T02161142  RH  008%=      5-min Rain = 0
KAD1 101855Z 31011KT 22/M14 A2985 RMK A01 T02171139  RH  008%=      5-min Rain = 0
KAD1 101856Z 33011G16KT 22/M14 A2985 RMK A01 T02181138  RH  008%=      5-min Rain = 0
KAD1 101857Z 31015G20KT 22/M14 A2985 RMK A01 T02211136  RH  008%=      5-min Rain = 0
KAD1 101858Z 31013G18KT 22/M14 A2985 RMK A01 T02221140  RH  008%=      5-min Rain = 0
KAD1 101859Z 31013KT 22/M14 A2985 RMK A01 T02201142  RH  008%=      5-min Rain = 0
KAD1 101900Z 33010KT 22/M14 A2985 RMK A01 T02171144  RH  008%=      5-min Rain = 0
KAD1 101901Z 34009KT 22/M14 A2985 RMK A01 T02171142  RH  008%=      5-min Rain = 0
KAD1 101902Z 34006KT 22/M14 A2985 RMK A01 T02171139  RH  008%=      5-min Rain = 0
KAD1 101903Z 32007KT 22/M14 A2985 RMK A01 T02181141  RH  008%=      5-min Rain = 0
KAD1 101904Z 30009KT 22/M14 A2985 RMK A01 T02191139  RH  008%=      5-min Rain = 0
KAD1 101905Z 28014G19KT 22/M14 A2985 RMK A01 T02221137  RH  008%=      5-min Rain = 0
KAD1 101906Z 29011KT 22/M14 A2985 RMK A01 T02231140  RH  008%=      5-min Rain = 0
KAD1 101907Z 30010KT 22/M14 A2985 RMK A01 T02221142  RH  008%=      5-min Rain = 0
KAD1 101908Z 30009KT 22/M14 A2984 RMK A01 T02211141  RH  008%=      5-min Rain = 0
KAD1 101909Z 32009KT 22/M14 A2984 RMK A01 T02221138  RH  008%=      5-min Rain = 0
KAD1 101910Z 31012KT 23/M13 A2985 RMK A01 T02261134  RH  008%=      5-min Rain = 0
KAD1 101911Z 31014KT 23/M14 A2984 RMK A01 T02281136  RH  008%=      5-min Rain = 0
KAD1 101912Z 29012KT 23/M14 A2984 RMK A01 T02271136  RH  008%=      5-min Rain = 0
KAD1 101913Z 30012KT 22/M14 A2984 RMK A01 T02241142  RH  008%=      5-min Rain = 0
KAD1 101914Z 31014KT 22/M14 A2985 RMK A01 T02211141  RH  008%=      5-min Rain = 0
KAD1 101915Z 33014KT 22/M14 A2985 RMK A01 T02201142  RH  008%=      5-min Rain = 0
KAD1 101916Z 32007KT 22/M14 A2984 RMK A01 T02191141  RH  008%=      5-min Rain = 0
KAD1 101917Z 32008KT 22/M14 A2984 RMK A01 T02191142  RH  008%=      5-min Rain = 0
KAD1 101918Z 32007KT 22/M14 A2984 RMK A01 T02191141  RH  008%=      5-min Rain = 0
KAD1 101919Z 32006KT 22/M14 A2984 RMK A01 T02201141  RH  008%=      5-min Rain = 0
KAD1 101920Z 30007KT 22/M14 A2984 RMK A01 T02201139  RH  008%=      5-min Rain = 0
KAD1 101921Z 30010KT 22/M14 A2984 RMK A01 T02221138  RH  008%=      5-min Rain = 0
KAD1 101922Z 31008KT 22/M14 A2984 RMK A01 T02241140  RH  008%=      5-min Rain = 0
KAD1 101923Z 32013KT 22/M14 A2984 RMK A01 T02241139  RH  008%=      5-min Rain = 0
KAD1 101924Z 31011KT 22/M14 A2983 RMK A01 T02221141  RH  008%=      5-min Rain = 0
KAD1 101925Z 31009KT 22/M14 A2983 RMK A01 T02211140  RH  008%=      5-min Rain = 0
KAD1 101926Z 30008KT 22/M14 A2983 RMK A01 T02221137  RH  008%=      5-min Rain = 0
KAD1 101927Z 34006KT 23/M14 A2983 RMK A01 T02251136  RH  008%=      5-min Rain = 0
KAD1 101928Z 35011KT 23/M14 A2983 RMK A01 T02261139  RH  008%=      5-min Rain = 0
KAD1 101929Z 35013KT 23/M14 A2983 RMK A01 T02251140  RH  008%=      5-min Rain = 0
KAD1 101930Z 33012KT 23/M14 A2983 RMK A01 T02261138  RH  008%=      5-min Rain = 0
KAD1 101931Z 29013G18KT 23/M14 A2983 RMK A01 T02281138  RH  008%=      5-min Rain = 0
KAD1 101932Z 29013KT 23/M14 A2983 RMK A01 T02281139  RH  008%=      5-min Rain = 0
KAD1 101933Z 29013KT 23/M14 A2983 RMK A01 T02291138  RH  008%=      5-min Rain = 0
KAD1 101934Z 30011KT 23/M14 A2983 RMK A01 T02271142  RH  007%=      5-min Rain = 0
KAD1 101935Z 28005KT 22/M15 A2983 RMK A01 T02221146  RH  007%=      5-min Rain = 0
KAD1 101936Z 28012G17KT 22/M14 A2983 RMK A01 T02201143  RH  008%=      5-min Rain = 0
KAD1 101937Z 29012KT 22/M14 A2983 RMK A01 T02221142  RH  008%=      5-min Rain = 0
KAD1 101938Z 29011KT 22/M14 A2983 RMK A01 T02221142  RH  008%=      5-min Rain = 0
KAD1 101939Z 28010KT 22/M14 A2983 RMK A01 T02231140  RH  008%=      5-min Rain = 0
KAD1 101940Z 27008KT 22/M14 A2983 RMK A01 T02231142  RH  008%=      5-min Rain = 0
KAD1 101941Z 30008KT 22/M14 A2983 RMK A01 T02231141  RH  008%=      5-min Rain = 0
KAD1 101942Z 31008KT 22/M14 A2983 RMK A01 T02231143  RH  008%=      5-min Rain = 0
KAD1 101943Z 32009KT 22/M14 A2983 RMK A01 T02231142  RH  008%=      5-min Rain = 0
KAD1 101944Z 32012G17KT 23/M14 A2982 RMK A01 T02251141  RH  008%=      5-min Rain = 0
KAD1 101945Z 30012KT 23/M14 A2983 RMK A01 T02261141  RH  008%=      5-min Rain = 0
KAD1 101946Z 29009KT 23/M14 A2982 RMK A01 T02251142  RH  007%=      5-min Rain = 0
KAD1 101947Z 29010KT 22/M14 A2982 RMK A01 T02231142  RH  008%=      5-min Rain = 0
KAD1 101948Z 30011KT 22/M14 A2982 RMK A01 T02231141  RH  008%=      5-min Rain = 0
KAD1 101949Z 32012KT 22/M14 A2982 RMK A01 T02241140  RH  008%=      5-min Rain = 0
KAD1 101950Z 31008KT 22/M15 A2982 RMK A01 T02221145  RH  007%=      5-min Rain = 0
KAD1 101951Z 28008KT 22/M14 A2982 RMK A01 T02221140  RH  008%=      5-min Rain = 0
KAD1 101952Z 29011G17KT 23/M14 A2982 RMK A01 T02251139  RH  008%=      5-min Rain = 0
KAD1 101953Z 31011KT 23/M14 A2982 RMK A01 T02281138  RH  008%=      5-min Rain = 0
KAD1 101954Z 30009KT 23/M14 A2982 RMK A01 T02291139  RH  007%=      5-min Rain = 0
KAD1 101955Z 33009G14KT 23/M14 A2982 RMK A01 T02311139  RH  007%=      5-min Rain = 0
KAD1 101956Z 34013G18KT 23/M14 A2982 RMK A01 T02321142  RH  007%=      5-min Rain = 0
KAD1 101957Z 35009KT 23/M15 A2982 RMK A01 T02291145  RH  007%=      5-min Rain = 0
KAD1 101958Z 32012KT 23/M14 A2982 RMK A01 T02291141  RH  007%=      5-min Rain = 0
KAD1 101959Z 32011KT 23/M14 A2982 RMK A01 T02301141  RH  007%=      5-min Rain = 0
KAD1 102000Z 32011KT 23/M14 A2982 RMK A01 T02281142  RH  007%=      5-min Rain = 0
KAD1 102001Z 31012KT 23/M14 A2982 RMK A01 T02281142  RH  007%=      5-min Rain = 0
KAD1 102002Z 30011KT 23/M14 A2982 RMK A01 T02281144  RH  007%=      5-min Rain = 0
KAD1 102003Z 31010KT 23/M14 A2982 RMK A01 T02271144  RH  007%=      5-min Rain = 0
KAD1 102004Z 31007KT 22/M15 A2982 RMK A01 T02241148  RH  007%=      5-min Rain = 0
KAD1 102005Z 30011G16KT 22/M15 A2982 RMK A01 T02241147  RH  007%=      5-min Rain = 0
KAD1 102006Z 30015KT 23/M15 A2982 RMK A01 T02271145  RH  007%=      5-min Rain = 0
KAD1 102007Z 29010KT 22/M15 A2982 RMK A01 T02241151  RH  007%=      5-min Rain = 0
KAD1 102008Z 32010KT 22/M15 A2982 RMK A01 T02231148  RH  007%=      5-min Rain = 0
KAD1 102009Z 33013KT 22/M15 A2982 RMK A01 T02241147  RH  007%=      5-min Rain = 0
KAD1 102010Z 33009KT 22/M15 A2982 RMK A01 T02241148  RH  007%=      5-min Rain = 0
KAD1 102011Z 32008KT 22/M15 A2982 RMK A01 T02221149  RH  007%=      5-min Rain = 0
KAD1 102012Z 34008KT 22/M15 A2982 RMK A01 T02201149  RH  007%=      5-min Rain = 0
KAD1 102013Z 35006KT 22/M15 A2982 RMK A01 T02201149  RH  007%=      5-min Rain = 0
KAD1 102014Z 34006KT 22/M15 A2982 RMK A01 T02211146  RH  007%=      5-min Rain = 0
KAD1 102015Z 33008KT 22/M15 A2982 RMK A01 T02211145  RH  007%=      5-min Rain = 0
KAD1 102016Z 29008KT 23/M14 A2982 RMK A01 T02261140  RH  008%=      5-min Rain = 0
KAD1 102017Z 32008KT 23/M14 A2982 RMK A01 T02301140  RH  007%=      5-min Rain = 0
KAD1 102018Z 34014KT 23/M14 A2982 RMK A01 T02301143  RH  007%=      5-min Rain = 0
KAD1 102019Z 33014KT 23/M15 A2982 RMK A01 T02281146  RH  007%=      5-min Rain = 0
KAD1 102020Z 34011G19KT 23/M15 A2982 RMK A01 T02271148  RH  007%=      5-min Rain = 0
KAD1 102021Z 32015KT 23/M14 A2982 RMK A01 T02271144  RH  007%=      5-min Rain = 0
KAD1 102022Z 30014G19KT 23/M14 A2982 RMK A01 T02301141  RH  007%=      5-min Rain = 0
KAD1 102023Z 30014KT 23/M14 A2982 RMK A01 T02301143  RH  007%=      5-min Rain = 0
KAD1 102024Z 30012KT 23/M15 A2982 RMK A01 T02271147  RH  007%=      5-min Rain = 0
KAD1 102025Z 30011KT 23/M15 A2982 RMK A01 T02261146  RH  007%=      5-min Rain = 0
KAD1 102026Z 29009KT 23/M15 A2982 RMK A01 T02251147  RH  007%=      5-min Rain = 0
KAD1 102027Z 29011KT 23/M15 A2982 RMK A01 T02251147  RH  007%=      5-min Rain = 0
KAD1 102028Z 30009KT 23/M15 A2982 RMK A01 T02251147  RH  007%=      5-min Rain = 0
KAD1 102029Z 30006KT 22/M15 A2982 RMK A01 T02241148  RH  007%=      5-min Rain = 0
KAD1 102030Z 29006KT 22/M15 A2982 RMK A01 T02241147  RH  007%=      5-min Rain = 0
KAD1 102031Z 30007G12KT 23/M14 A2982 RMK A01 T02261144  RH  007%=      5-min Rain = 0
KAD1 102032Z 31009KT 23/M15 A2982 RMK A01 T02281145  RH  007%=      5-min Rain = 0
KAD1 102033Z 30009KT 23/M15 A2982 RMK A01 T02271148  RH  007%=      5-min Rain = 0
KAD1 102034Z 30007KT 23/M15 A2982 RMK A01 T02281146  RH  007%=      5-min Rain = 0
KAD1 102035Z 31004KT 23/M15 A2982 RMK A01 T02281148  RH  007%=      5-min Rain = 0
KAD1 102036Z 33010KT 23/M15 A2982 RMK A01 T02281147  RH  007%=      5-min Rain = 0
KAD1 102037Z 33007KT 23/M15 A2982 RMK A01 T02271149  RH  007%=      5-min Rain = 0
KAD1 102038Z 32006KT 23/M15 A2982 RMK A01 T02271147  RH  007%=      5-min Rain = 0
KAD1 102039Z 31006KT 23/M14 A2981 RMK A01 T02311144  RH  007%=      5-min Rain = 0
KAD1 102040Z 34009KT 23/M15 A2982 RMK A01 T02321145  RH  007%=      5-min Rain = 0
KAD1 102041Z 36009KT 23/M14 A2981 RMK A01 T02321143  RH  007%=      5-min Rain = 0
KAD1 102042Z 35005KT 23/M15 A2981 RMK A01 T02301147  RH  007%=      5-min Rain = 0
KAD1 102043Z 33006KT 23/M14 A2981 RMK A01 T02281143  RH  007%=      5-min Rain = 0
KAD1 102044Z 30007KT 23/M14 A2981 RMK A01 T02331141  RH  007%=      5-min Rain = 0
KAD1 102045Z 27006KT 23/M14 A2981 RMK A01 T02341144  RH  007%=      5-min Rain = 0
KAD1 102046Z 33005KT 23/M15 A2981 RMK A01 T02331145  RH  007%=      5-min Rain = 0
KAD1 102047Z 32006KT 23/M15 A2981 RMK A01 T02311146  RH  007%=      5-min Rain = 0
KAD1 102048Z 30008KT 23/M14 A2981 RMK A01 T02321143  RH  007%=      5-min Rain = 0
KAD1 102049Z 30012KT 24/M14 A2981 RMK A01 T02351144  RH  007%=      5-min Rain = 0
KAD1 102050Z 32010KT 24/M15 A2981 RMK A01 T02351145  RH  007%=      5-min Rain = 0
KAD1 102051Z 32008KT 23/M15 A2981 RMK A01 T02331145  RH  007%=      5-min Rain = 0
KAD1 102052Z 32007KT 23/M14 A2981 RMK A01 T02331144  RH  007%=      5-min Rain = 0
KAD1 102053Z 34008KT 23/M14 A2981 RMK A01 T02331143  RH  007%=      5-min Rain = 0
KAD1 102054Z 34011KT 23/M14 A2981 RMK A01 T02341144  RH  007%=      5-min Rain = 0
KAD1 102055Z 34011KT 23/M15 A2981 RMK A01 T02311146  RH  007%=      5-min Rain = 0
KAD1 102056Z 33010KT 23/M15 A2981 RMK A01 T02291146  RH  007%=      5-min Rain = 0
KAD1 102057Z 32011G16KT 23/M15 A2981 RMK A01 T02281146  RH  007%=      5-min Rain = 0
KAD1 102058Z 32014KT 23/M14 A2981 RMK A01 T02271144  RH  007%=      5-min Rain = 0
KAD1 102059Z 32015KT 23/M15 A2981 RMK A01 T02261146  RH  007%=      5-min Rain = 0
KAD1 102100Z 32015KT 22/M15 A2981 RMK A01 T02241147  RH  007%=      5-min Rain = 0
KAD1 102101Z 33011KT 23/M14 A2981 RMK A01 T02251144  RH  007%=      5-min Rain = 0
KAD1 102102Z 32011KT 23/M14 A2981 RMK A01 T02271142  RH  007%=      5-min Rain = 0
KAD1 102103Z 33010KT 23/M15 A2981 RMK A01 T02261145  RH  007%=      5-min Rain = 0
KAD1 102104Z 33009KT 22/M15 A2981 RMK A01 T02241145  RH  007%=      5-min Rain = 0
KAD1 102105Z 34011KT 22/M15 A2981 RMK A01 T02221147  RH  007%=      5-min Rain = 0
KAD1 102106Z 32009KT 22/M15 A2982 RMK A01 T02211147  RH  007%=      5-min Rain = 0
KAD1 102107Z 33007KT 22/M15 A2981 RMK A01 T02191148  RH  007%=      5-min Rain = 0
KAD1 102108Z 33008KT 22/M15 A2981 RMK A01 T02191145  RH  008%=      5-min Rain = 0
KAD1 102109Z 32009KT 22/M15 A2982 RMK A01 T02201146  RH  008%=      5-min Rain = 0
KAD1 102110Z 31010KT 22/M15 A2982 RMK A01 T02201146  RH  008%=      5-min Rain = 0
KAD1 102111Z 31009KT 22/M15 A2982 RMK A01 T02201145  RH  008%=      5-min Rain = 0
KAD1 102112Z 30011KT 22/M15 A2982 RMK A01 T02201147  RH  007%=      5-min Rain = 0
KAD1 102113Z 30008KT 22/M15 A2982 RMK A01 T02171149  RH  007%=      5-min Rain = 0
KAD1 102114Z 30006KT 22/M15 A2982 RMK A01 T02161148  RH  008%=      5-min Rain = 0
KAD1 102115Z 31004KT 22/M15 A2982 RMK A01 T02161145  RH  008%=      5-min Rain = 0
KAD1 102116Z 32007KT 22/M14 A2982 RMK A01 T02161144  RH  008%=      5-min Rain = 0
KAD1 102117Z 34008KT 22/M15 A2982 RMK A01 T02171145  RH  008%=      5-min Rain = 0
KAD1 102118Z 35008KT 22/M15 A2982 RMK A01 T02171146  RH  008%=      5-min Rain = 0
KAD1 102119Z 35007KT 22/M15 A2982 RMK A01 T02161147  RH  008%=      5-min Rain = 0
KAD1 102120Z 34007KT 22/M15 A2982 RMK A01 T02151148  RH  008%=      5-min Rain = 0
KAD1 102121Z 34007KT 21/M15 A2982 RMK A01 T02141148  RH  008%=      5-min Rain = 0
KAD1 102122Z 33007KT 21/M15 A2982 RMK A01 T02131148  RH  008%=      5-min Rain = 0
KAD1 102123Z 32005KT 21/M15 A2982 RMK A01 T02121150  RH  008%=      5-min Rain = 0
KAD1 102124Z 34004KT 21/M15 A2982 RMK A01 T02111148  RH  008%=      5-min Rain = 0
KAD1 102125Z 33006KT 21/M15 A2982 RMK A01 T02121147  RH  008%=      5-min Rain = 0
KAD1 102126Z 31007KT 21/M15 A2982 RMK A01 T02121146  RH  008%=      5-min Rain = 0
KAD1 102127Z 32004KT 21/M15 A2982 RMK A01 T02111148  RH  008%=      5-min Rain = 0
KAD1 102128Z 33005KT 21/M15 A2981 RMK A01 T02121147  RH  008%=      5-min Rain = 0
KAD1 102129Z 32007KT 21/M15 A2981 RMK A01 T02141146  RH  008%=      5-min Rain = 0
KAD1 102130Z 32007KT 22/M15 A2981 RMK A01 T02161148  RH  008%=      5-min Rain = 0
KAD1 102131Z 32007KT 22/M15 A2981 RMK A01 T02171147  RH  008%=      5-min Rain = 0
KAD1 102132Z 31008KT 22/M14 A2982 RMK A01 T02201144  RH  008%=      5-min Rain = 0
KAD1 102133Z 31008KT 22/M15 A2982 RMK A01 T02221146  RH  007%=      5-min Rain = 0
KAD1 102134Z 31007KT 22/M15 A2982 RMK A01 T02211149  RH  007%=      5-min Rain = 0
KAD1 102135Z 29006KT 22/M15 A2982 RMK A01 T02201149  RH  007%=      5-min Rain = 0
KAD1 102136Z 28006KT 22/M15 A2982 RMK A01 T02191149  RH  007%=      5-min Rain = 0
KAD1 102137Z 29005KT 22/M15 A2982 RMK A01 T02191148  RH  007%=      5-min Rain = 0
KAD1 102138Z 28006KT 22/M15 A2982 RMK A01 T02201148  RH  007%=      5-min Rain = 0
KAD1 102139Z 28006KT 22/M15 A2982 RMK A01 T02201149  RH  007%=      5-min Rain = 0
KAD1 102140Z 30006KT 22/M15 A2982 RMK A01 T02181150  RH  007%=      5-min Rain = 0
KAD1 102141Z 33004KT 22/M15 A2982 RMK A01 T02171150  RH  007%=      5-min Rain = 0
KAD1 102142Z 33003KT 22/M15 A2982 RMK A01 T02161150  RH  007%=      5-min Rain = 0
KAD1 102143Z 25005KT 22/M15 A2981 RMK A01 T02171148  RH  008%=      5-min Rain = 0
KAD1 102144Z 25006KT 22/M15 A2981 RMK A01 T02201147  RH  007%=      5-min Rain = 0
KAD1 102145Z 23004KT 22/M15 A2981 RMK A01 T02211147  RH  007%=      5-min Rain = 0
KAD1 102146Z 24004KT 22/M15 A2981 RMK A01 T02221147  RH  007%=      5-min Rain = 0
KAD1 102147Z 24004KT 23/M15 A2981 RMK A01 T02251147  RH  007%=      5-min Rain = 0
KAD1 102148Z 25005KT 23/M15 A2981 RMK A01 T02251148  RH  007%=      5-min Rain = 0
KAD1 102149Z 24003KT 23/M15 A2981 RMK A01 T02251149  RH  007%=      5-min Rain = 0
KAD1 102150Z 25003KT 23/M15 A2981 RMK A01 T02251147  RH  007%=      5-min Rain = 0
KAD1 102151Z 28006KT 23/M15 A2981 RMK A01 T02271145  RH  007%=      5-min Rain = 0
KAD1 102152Z 29005KT 23/M15 A2981 RMK A01 T02281145  RH  007%=      5-min Rain = 0
KAD1 102153Z 30007KT 23/M15 A2981 RMK A01 T02281146  RH  007%=      5-min Rain = 0
KAD1 102154Z 29007KT 23/M15 A2981 RMK A01 T02281145  RH  007%=      5-min Rain = 0
KAD1 102155Z 31009KT 23/M15 A2981 RMK A01 T02271147  RH  007%=      5-min Rain = 0
KAD1 102156Z 32007KT 23/M15 A2981 RMK A01 T02261148  RH  007%=      5-min Rain = 0
KAD1 102157Z 32007KT 22/M15 A2981 RMK A01 T02231148  RH  007%=      5-min Rain = 0
KAD1 102158Z 33005KT 22/M15 A2981 RMK A01 T02221147  RH  007%=      5-min Rain = 0
KAD1 102159Z 34005KT 22/M15 A2981 RMK A01 T02241147  RH  007%=      5-min Rain = 0
KAD1 102200Z 33006KT 23/M15 A2981 RMK A01 T02251147  RH  007%=      5-min Rain = 0
KAD1 102201Z 33005KT 23/M15 A2981 RMK A01 T02251147  RH  007%=      5-min Rain = 0
KAD1 102202Z 30005KT 23/M15 A2981 RMK A01 T02261145  RH  007%=      5-min Rain = 0
KAD1 102203Z 30004KT 23/M15 A2981 RMK A01 T02281146  RH  007%=      5-min Rain = 0
KAD1 102204Z 28002KT 23/M15 A2981 RMK A01 T02281148  RH  007%=      5-min Rain = 0
KAD1 102205Z 28011KT 23/M15 A2981 RMK A01 T02281147  RH  007%=      5-min Rain = 0
KAD1 102206Z 29009KT 23/M15 A2981 RMK A01 T02281148  RH  007%=      5-min Rain = 0
KAD1 102207Z 29008KT 23/M15 A2981 RMK A01 T02271148  RH  007%=      5-min Rain = 0
KAD1 102208Z 29008KT 23/M15 A2981 RMK A01 T02251151  RH  007%=      5-min Rain = 0
KAD1 102209Z 30010KT 23/M15 A2981 RMK A01 T02251147  RH  007%=      5-min Rain = 0
KAD1 102210Z 29007KT 23/M15 A2981 RMK A01 T02261148  RH  007%=      5-min Rain = 0
KAD1 102211Z 28004KT 22/M15 A2981 RMK A01 T02241150  RH  007%=      5-min Rain = 0
KAD1 102212Z 27008KT 22/M15 A2981 RMK A01 T02231150  RH  007%=      5-min Rain = 0
KAD1 102213Z 30009KT 22/M15 A2981 RMK A01 T02221149  RH  007%=      5-min Rain = 0
KAD1 102214Z 32009KT 22/M15 A2981 RMK A01 T02241146  RH  007%=      5-min Rain = 0
KAD1 102215Z 30008KT 22/M15 A2981 RMK A01 T02241149  RH  007%=      5-min Rain = 0
KAD1 102216Z 31005KT 22/M15 A2981 RMK A01 T02221149  RH  007%=      5-min Rain = 0
KAD1 102217Z 30005KT 22/M15 A2981 RMK A01 T02221148  RH  007%=      5-min Rain = 0
KAD1 102218Z 30005KT 22/M15 A2981 RMK A01 T02221149  RH  007%=      5-min Rain = 0
KAD1 102219Z 30005KT 22/M15 A2981 RMK A01 T02221149  RH  007%=      5-min Rain = 0
KAD1 102220Z 31008KT 22/M15 A2981 RMK A01 T02221147  RH  007%=      5-min Rain = 0
KAD1 102221Z 30008KT 22/M15 A2981 RMK A01 T02221148  RH  007%=      5-min Rain = 0
KAD1 102222Z 29005KT 22/M15 A2981 RMK A01 T02211151  RH  007%=      5-min Rain = 0
KAD1 102223Z 28004KT 22/M15 A2981 RMK A01 T02191150  RH  007%=      5-min Rain = 0
KAD1 102224Z 29003KT 22/M15 A2981 RMK A01 T02191149  RH  007%=      5-min Rain = 0
KAD1 102225Z 28003KT 22/M15 A2981 RMK A01 T02171151  RH  007%=      5-min Rain = 0
KAD1 102226Z 32003KT 22/M15 A2981 RMK A01 T02161152  RH  007%=      5-min Rain = 0
KAD1 102227Z 30003KT 22/M15 A2981 RMK A01 T02161151  RH  007%=      5-min Rain = 0
KAD1 102228Z 32005KT 22/M15 A2981 RMK A01 T02161149  RH  007%=      5-min Rain = 0
KAD1 102229Z 32006KT 22/M15 A2981 RMK A01 T02161147  RH  008%=      5-min Rain = 0
KAD1 102230Z 31007KT 22/M15 A2981 RMK A01 T02171148  RH  008%=      5-min Rain = 0
KAD1 102231Z 32006KT 22/M15 A2981 RMK A01 T02161148  RH  008%=      5-min Rain = 0
KAD1 102232Z 31006KT 22/M15 A2982 RMK A01 T02151149  RH  008%=      5-min Rain = 0
KAD1 102233Z 29004KT 21/M15 A2982 RMK A01 T02131150  RH  008%=      5-min Rain = 0
KAD1 102234Z 29003KT 21/M15 A2982 RMK A01 T02131150  RH  008%=      5-min Rain = 0
KAD1 102235Z 29002KT 21/M15 A2982 RMK A01 T02121150  RH  008%=      5-min Rain = 0
KAD1 102236Z 30001KT 21/M15 A2982 RMK A01 T02121150  RH  008%=      5-min Rain = 0
KAD1 102237Z 32001KT 21/M15 A2982 RMK A01 T02121149  RH  008%=      5-min Rain = 0
KAD1 102238Z 36001KT 21/M15 A2982 RMK A01 T02131149  RH  008%=      5-min Rain = 0
KAD1 102239Z 34001KT 21/M15 A2982 RMK A01 T02131149  RH  008%=      5-min Rain = 0
KAD1 102240Z 32001KT 21/M15 A2982 RMK A01 T02131148  RH  008%=      5-min Rain = 0
KAD1 102241Z 34001KT 21/M15 A2982 RMK A01 T02131149  RH  008%=      5-min Rain = 0
KAD1 102242Z 34001KT 21/M15 A2982 RMK A01 T02131150  RH  008%=      5-min Rain = 0
KAD1 102243Z 33000KT 21/M15 A2982 RMK A01 T02131149  RH  008%=      5-min Rain = 0
KAD1 102244Z 25002KT 21/M15 A2982 RMK A01 T02131149  RH  008%=      5-min Rain = 0
KAD1 102245Z 26002KT 21/M15 A2982 RMK A01 T02141149  RH  008%=      5-min Rain = 0
KAD1 102246Z 26000KT 22/M15 A2982 RMK A01 T02151149  RH  008%=      5-min Rain = 0
KAD1 102247Z 29001KT 22/M15 A2982 RMK A01 T02151148  RH  008%=      5-min Rain = 0
KAD1 102248Z 29002KT 22/M15 A2982 RMK A01 T02161148  RH  008%=      5-min Rain = 0
KAD1 102249Z 29002KT 22/M15 A2982 RMK A01 T02161149  RH  007%=      5-min Rain = 0
KAD1 102250Z 31002KT 22/M15 A2982 RMK A01 T02161148  RH  008%=      5-min Rain = 0
KAD1 102251Z 32002KT 22/M15 A2982 RMK A01 T02171149  RH  007%=      5-min Rain = 0
KAD1 102252Z 30002KT 22/M15 A2982 RMK A01 T02161149  RH  007%=      5-min Rain = 0
KAD1 102253Z 30002KT 22/M15 A2982 RMK A01 T02151149  RH  008%=      5-min Rain = 0
KAD1 102254Z 30003KT 22/M15 A2982 RMK A01 T02151148  RH  008%=      5-min Rain = 0
KAD1 102255Z 32001KT 22/M15 A2982 RMK A01 T02151150  RH  007%=      5-min Rain = 0
KAD1 102256Z 33000KT 22/M15 A2982 RMK A01 T02151149  RH  008%=      5-min Rain = 0
KAD1 102257Z 29000KT 22/M15 A2982 RMK A01 T02151148  RH  008%=      5-min Rain = 0
KAD1 102258Z 30000KT 22/M15 A2982 RMK A01 T02151148  RH  008%=      5-min Rain = 0
KAD1 102259Z 01002KT 22/M15 A2982 RMK A01 T02151148  RH  008%=      5-min Rain = 0
KAD1 102300Z 00002KT 22/M15 A2982 RMK A01 T02151149  RH  008%=      5-min Rain = 0
KAD1 102301Z 02002KT 21/M15 A2982 RMK A01 T02131151  RH  007%=      5-min Rain = 0
KAD1 102302Z 34002KT 21/M15 A2982 RMK A01 T02131150  RH  008%=      5-min Rain = 0
KAD1 102303Z 34002KT 21/M15 A2982 RMK A01 T02121150  RH  008%=      5-min Rain = 0
KAD1 102304Z 02002KT 21/M15 A2982 RMK A01 T02121150  RH  008%=      5-min Rain = 0
KAD1 102305Z 36003KT 21/M15 A2982 RMK A01 T02131149  RH  008%=      5-min Rain = 0
KAD1 102306Z 35004KT 21/M15 A2982 RMK A01 T02121147  RH  008%=      5-min Rain = 0
KAD1 102307Z 34003KT 21/M15 A2982 RMK A01 T02121148  RH  008%=      5-min Rain = 0
KAD1 102308Z 33002KT 21/M15 A2982 RMK A01 T02121148  RH  008%=      5-min Rain = 0
KAD1 102309Z 31000KT 21/M15 A2982 RMK A01 T02111147  RH  008%=      5-min Rain = 0
KAD1 102310Z 34000KT 21/M15 A2982 RMK A01 T02111147  RH  008%=      5-min Rain = 0
KAD1 102311Z 00000KT 21/M15 A2982 RMK A01 T02111147  RH  008%=      5-min Rain = 0
KAD1 102312Z 00000KT 21/M15 A2982 RMK A01 T02121147  RH  008%=      5-min Rain = 0
KAD1 102313Z 03001KT 21/M15 A2982 RMK A01 T02121147  RH  008%=      5-min Rain = 0
KAD1 102314Z 02002KT 21/M15 A2982 RMK A01 T02111146  RH  008%=      5-min Rain = 0
KAD1 102315Z 02001KT 21/M14 A2982 RMK A01 T02111144  RH  008%=      5-min Rain = 0
KAD1 102316Z 02001KT 21/M15 A2982 RMK A01 T02101145  RH  008%=      5-min Rain = 0
KAD1 102317Z 35001KT 21/M15 A2982 RMK A01 T02101145  RH  008%=      5-min Rain = 0
KAD1 102318Z 33002KT 21/M14 A2982 RMK A01 T02111143  RH  008%=      5-min Rain = 0
KAD1 102319Z 34002KT 21/M14 A2982 RMK A01 T02101143  RH  008%=      5-min Rain = 0
KAD1 102320Z 34001KT 21/M15 A2982 RMK A01 T02101145  RH  008%=      5-min Rain = 0
KAD1 102321Z 33001KT 21/M15 A2982 RMK A01 T02101146  RH  008%=      5-min Rain = 0
KAD1 102322Z 33001KT 21/M15 A2982 RMK A01 T02111147  RH  008%=      5-min Rain = 0
KAD1 102323Z 34001KT 21/M14 A2982 RMK A01 T02111144  RH  008%=      5-min Rain = 0
KAD1 102324Z 36000KT 21/M15 A2982 RMK A01 T02111145  RH  008%=      5-min Rain = 0
KAD1 102325Z 06000KT 21/M15 A2982 RMK A01 T02111148  RH  008%=      5-min Rain = 0
KAD1 102326Z 07001KT 21/M15 A2982 RMK A01 T02111147  RH  008%=      5-min Rain = 0
KAD1 102327Z 08002KT 21/M14 A2982 RMK A01 T02111142  RH  008%=      5-min Rain = 0
KAD1 102328Z 07001KT 21/M14 A2982 RMK A01 T02101139  RH  008%=      5-min Rain = 0
KAD1 102329Z 04002KT 21/M14 A2983 RMK A01 T02091141  RH  008%=      5-min Rain = 0
KAD1 102330Z 04002KT 21/M14 A2983 RMK A01 T02091141  RH  008%=      5-min Rain = 0
KAD1 102331Z 05001KT 21/M14 A2983 RMK A01 T02091144  RH  008%=      5-min Rain = 0
KAD1 102332Z 05001KT 21/M15 A2983 RMK A01 T02091145  RH  008%=      5-min Rain = 0
KAD1 102333Z 04001KT 21/M14 A2982 RMK A01 T02091143  RH  008%=      5-min Rain = 0
KAD1 102334Z 05001KT 21/M14 A2982 RMK A01 T02091142  RH  008%=      5-min Rain = 0
KAD1 102335Z 06002KT 21/M14 A2982 RMK A01 T02081135  RH  009%=      5-min Rain = 0
KAD1 102336Z 07003KT 21/M14 A2982 RMK A01 T02061140  RH  009%=      5-min Rain = 0
KAD1 102337Z 06003KT 21/M14 A2982 RMK A01 T02061138  RH  009%=      5-min Rain = 0
KAD1 102338Z 05004KT 20/M14 A2982 RMK A01 T02041137  RH  009%=      5-min Rain = 0
KAD1 102339Z 07003KT 20/M14 A2982 RMK A01 T02021138  RH  009%=      5-min Rain = 0
KAD1 102340Z 06004KT 20/M14 A2982 RMK A01 T02021141  RH  009%=      5-min Rain = 0
KAD1 102341Z 06005KT 20/M14 A2982 RMK A01 T02021140  RH  009%=      5-min Rain = 0
KAD1 102342Z 05005KT 20/M14 A2982 RMK A01 T02001137  RH  009%=      5-min Rain = 0
KAD1 102343Z 06005KT 20/M14 A2983 RMK A01 T01991136  RH  009%=      5-min Rain = 0
KAD1 102344Z 06006KT 20/M13 A2983 RMK A01 T01981134  RH  009%=      5-min Rain = 0
KAD1 102345Z 06006KT 20/M14 A2983 RMK A01 T01961135  RH  010%=      5-min Rain = 0
KAD1 102346Z 05007KT 20/M14 A2983 RMK A01 T01951135  RH  010%=      5-min Rain = 0
KAD1 102347Z 05006KT 19/M14 A2983 RMK A01 T01941136  RH  010%=      5-min Rain = 0
KAD1 102348Z 05006KT 19/M14 A2983 RMK A01 T01931136  RH  010%=      5-min Rain = 0
KAD1 102349Z 05007KT 19/M14 A2983 RMK A01 T01921136  RH  010%=      5-min Rain = 0
KAD1 102350Z 05008KT 19/M14 A2983 RMK A01 T01911136  RH  010%=      5-min Rain = 0
KAD1 102351Z 05008KT 19/M14 A2983 RMK A01 T01911136  RH  010%=      5-min Rain = 0
KAD1 102352Z 05008KT 19/M14 A2983 RMK A01 T01931135  RH  010%=      5-min Rain = 0
KAD1 102353Z 05008KT 19/M14 A2983 RMK A01 T01931135  RH  010%=      5-min Rain = 0
KAD1 102354Z 05010KT 19/M13 A2983 RMK A01 T01931130  RH  010%=      5-min Rain = 0
KAD1 102355Z 06010KT 19/M13 A2983 RMK A01 T01931126  RH  010%=      5-min Rain = 0
KAD1 102356Z 06009KT 19/M12 A2983 RMK A01 T01941124  RH  011%=      5-min Rain = 0
KAD1 102357Z 05009KT 19/M12 A2983 RMK A01 T01931122  RH  011%=      5-min Rain = 0
KAD1 102358Z 05012KT 19/M12 A2983 RMK A01 T01921122  RH  011%=      5-min Rain = 0
KAD1 102359Z 05012KT 19/M12 A2983 RMK A01 T01921122  RH  011%=      5-min Rain = 0
KAD1 110000Z 05010KT 19/M12 A2983 RMK A01 T01921121  RH  011%=      5-min Rain = 0
KAD1 110001Z 06009KT 19/M12 A2983 RMK A01 T01931121  RH  011%=      5-min Rain = 0
KAD1 110002Z 06009KT 19/M12 A2983 RMK A01 T01911120  RH  011%=      5-min Rain = 0
KAD1 110003Z 06012KT 19/M12 A2983 RMK A01 T01901121  RH  011%=      5-min Rain = 0
KAD1 110004Z 06011KT 19/M12 A2983 RMK A01 T01901120  RH  011%=      5-min Rain = 0
KAD1 110005Z 06010KT 19/M12 A2983 RMK A01 T01901119  RH  011%=      5-min Rain = 0
KAD1 110006Z 06010KT 19/M12 A2983 RMK A01 T01891118  RH  011%=      5-min Rain = 0
KAD1 110007Z 06010KT 19/M12 A2983 RMK A01 T01891118  RH  011%=      5-min Rain = 0
KAD1 110008Z 06011KT 19/M12 A2983 RMK A01 T01881118  RH  011%=      5-min Rain = 0
KAD1 110009Z 06010KT 19/M12 A2983 RMK A01 T01881118  RH  011%=      5-min Rain = 0
KAD1 110010Z 06009KT 19/M12 A2983 RMK A01 T01871117  RH  012%=      5-min Rain = 0
KAD1 110011Z 07009KT 19/M12 A2983 RMK A01 T01871116  RH  012%=      5-min Rain = 0
KAD1 110012Z 07009KT 19/M12 A2983 RMK A01 T01851117  RH  012%=      5-min Rain = 0
KAD1 110013Z 07008KT 18/M12 A2983 RMK A01 T01841118  RH  012%=      5-min Rain = 0
KAD1 110014Z 07008KT 18/M12 A2983 RMK A01 T01821118  RH  012%=      5-min Rain = 0
KAD1 110015Z 07009KT 18/M12 A2983 RMK A01 T01811117  RH  012%=      5-min Rain = 0
KAD1 110016Z 07008KT 18/M12 A2983 RMK A01 T01801117  RH  012%=      5-min Rain = 0
KAD1 110017Z 07009KT 18/M12 A2983 RMK A01 T01781118  RH  012%=      5-min Rain = 0
KAD1 110018Z 07009KT 18/M12 A2983 RMK A01 T01781118  RH  012%=      5-min Rain = 0
KAD1 110019Z 07008KT 18/M12 A2983 RMK A01 T01781118  RH  012%=      5-min Rain = 0
KAD1 110020Z 07009KT 18/M12 A2983 RMK A01 T01781118  RH  012%=      5-min Rain = 0
KAD1 110021Z 07009KT 18/M12 A2984 RMK A01 T01781118  RH  012%=      5-min Rain = 0
KAD1 110022Z 07008KT 18/M12 A2984 RMK A01 T01781118  RH  012%=      5-min Rain = 0
KAD1 110023Z 07009KT 18/M12 A2984 RMK A01 T01771119  RH  012%=      5-min Rain = 0
KAD1 110024Z 07010KT 18/M12 A2984 RMK A01 T01761118  RH  012%=      5-min Rain = 0
KAD1 110025Z 07012KT 18/M12 A2984 RMK A01 T01761118  RH  012%=      5-min Rain = 0
KAD1 110026Z 07011KT 18/M12 A2984 RMK A01 T01781117  RH  012%=      5-min Rain = 0
KAD1 110027Z 07011KT 18/M12 A2984 RMK A01 T01771116  RH  012%=      5-min Rain = 0
KAD1 110028Z 06011KT 18/M12 A2984 RMK A01 T01771117  RH  012%=      5-min Rain = 0
KAD1 110029Z 06012KT 18/M12 A2984 RMK A01 T01751116  RH  013%=      5-min Rain = 0
KAD1 110030Z 06012KT 17/M12 A2984 RMK A01 T01741115  RH  013%=      5-min Rain = 0
KAD1 110031Z 06013KT 18/M11 A2984 RMK A01 T01751112  RH  013%=      5-min Rain = 0
KAD1 110032Z 07013KT 18/M11 A2984 RMK A01 T01751110  RH  013%=      5-min Rain = 0
KAD1 110033Z 07013KT 18/M11 A2984 RMK A01 T01761109  RH  013%=      5-min Rain = 0
KAD1 110034Z 07013KT 18/M11 A2984 RMK A01 T01761108  RH  013%=      5-min Rain = 0
KAD1 110035Z 07013KT 18/M11 A2984 RMK A01 T01761107  RH  013%=      5-min Rain = 0
KAD1 110036Z 07012KT 18/M11 A2984 RMK A01 T01761108  RH  013%=      5-min Rain = 0
KAD1 110037Z 08011KT 18/M11 A2984 RMK A01 T01751108  RH  013%=      5-min Rain = 0
KAD1 110038Z 08012KT 17/M11 A2984 RMK A01 T01741108  RH  014%=      5-min Rain = 0
KAD1 110039Z 08011KT 17/M11 A2984 RMK A01 T01721109  RH  014%=      5-min Rain = 0
KAD1 110040Z 08011KT 17/M11 A2984 RMK A01 T01711108  RH  014%=      5-min Rain = 0
KAD1 110041Z 08011KT 17/M11 A2985 RMK A01 T01711108  RH  014%=      5-min Rain = 0
KAD1 110042Z 08011KT 17/M11 A2985 RMK A01 T01701108  RH  014%=      5-min Rain = 0
KAD1 110043Z 08010KT 17/M11 A2985 RMK A01 T01691108  RH  014%=      5-min Rain = 0
KAD1 110044Z 08010KT 17/M11 A2985 RMK A01 T01681108  RH  014%=      5-min Rain = 0
KAD1 110045Z 07010KT 17/M11 A2985 RMK A01 T01671107  RH  014%=      5-min Rain = 0
KAD1 110046Z 07010KT 17/M11 A2985 RMK A01 T01671107  RH  014%=      5-min Rain = 0
KAD1 110047Z 07010KT 17/M11 A2985 RMK A01 T01651107  RH  014%=      5-min Rain = 0
KAD1 110048Z 06010KT 16/M11 A2985 RMK A01 T01641107  RH  014%=      5-min Rain = 0
KAD1 110049Z 07010KT 16/M11 A2985 RMK A01 T01631108  RH  015%=      5-min Rain = 0
KAD1 110050Z 06010KT 16/M11 A2985 RMK A01 T01621108  RH  015%=      5-min Rain = 0
KAD1 110051Z 06010KT 16/M11 A2986 RMK A01 T01611108  RH  015%=      5-min Rain = 0
KAD1 110052Z 06010KT 16/M11 A2986 RMK A01 T01591108  RH  015%=      5-min Rain = 0
KAD1 110053Z 06010KT 16/M11 A2986 RMK A01 T01591107  RH  015%=      5-min Rain = 0
KAD1 110054Z 07011KT 16/M11 A2986 RMK A01 T01591106  RH  015%=      5-min Rain = 0
KAD1 110055Z 07010KT 16/M11 A2986 RMK A01 T01591105  RH  015%=      5-min Rain = 0
KAD1 110056Z 06011KT 16/M10 A2986 RMK A01 T01601104  RH  015%=      5-min Rain = 0
KAD1 110057Z 06011KT 16/M11 A2986 RMK A01 T01591105  RH  015%=      5-min Rain = 0
KAD1 110058Z 05013G18KT 16/M10 A2986 RMK A01 T01591104  RH  015%=      5-min Rain = 0
KAD1 110059Z 05018G24KT 16/M10 A2986 RMK A01 T01601103  RH  015%=      5-min Rain = 0
KAD1 110100Z 05021KT 16/M10 A2986 RMK A01 T01621096  RH  016%=      5-min Rain = 0
KAD1 110101Z 05020KT 17/M09 A2986 RMK A01 T01651093  RH  016%=      5-min Rain = 0
KAD1 110102Z 05022KT 17/M09 A2986 RMK A01 T01661091  RH  016%=      5-min Rain = 0
KAD1 110103Z 05020KT 17/M09 A2987 RMK A01 T01661088  RH  017%=      5-min Rain = 0
KAD1 110104Z 05020KT 17/M09 A2987 RMK A01 T01651087  RH  017%=      5-min Rain = 0
KAD1 110105Z 05016KT 16/M09 A2987 RMK A01 T01641087  RH  017%=      5-min Rain = 0
KAD1 110106Z 05018KT 16/M09 A2987 RMK A01 T01621088  RH  017%=      5-min Rain = 0
KAD1 110107Z 05017KT 16/M09 A2987 RMK A01 T01611086  RH  017%=      5-min Rain = 0
KAD1 110108Z 05017KT 16/M09 A2987 RMK A01 T01601085  RH  018%=      5-min Rain = 0
KAD1 110109Z 05018G24KT 16/M08 A2987 RMK A01 T01591084  RH  018%=      5-min Rain = 0
KAD1 110110Z 05019G24KT 16/M08 A2987 RMK A01 T01591083  RH  018%=      5-min Rain = 0
KAD1 110111Z 05020KT 16/M08 A2987 RMK A01 T01601081  RH  018%=      5-min Rain = 0
KAD1 110112Z 05018G23KT 16/M08 A2987 RMK A01 T01601080  RH  018%=      5-min Rain = 0
KAD1 110113Z 05017KT 16/M08 A2987 RMK A01 T01591081  RH  018%=      5-min Rain = 0
KAD1 110114Z 05017KT 16/M08 A2987 RMK A01 T01581081  RH  019%=      5-min Rain = 0
KAD1 110115Z 05017KT 16/M08 A2987 RMK A01 T01571080  RH  019%=      5-min Rain = 0
KAD1 110116Z 05017KT 16/M08 A2987 RMK A01 T01571080  RH  019%=      5-min Rain = 0
KAD1 110117Z 05016KT 16/M08 A2988 RMK A01 T01561080  RH  019%=      5-min Rain = 0
KAD1 110118Z 05018KT 16/M08 A2988 RMK A01 T01561080  RH  019%=      5-min Rain = 0
KAD1 110119Z 05019KT 16/M08 A2988 RMK A01 T01551079  RH  019%=      5-min Rain = 0
KAD1 110120Z 05018KT 16/M08 A2988 RMK A01 T01561078  RH  019%=      5-min Rain = 0
KAD1 110121Z 05019KT 16/M08 A2988 RMK A01 T01561078  RH  019%=      5-min Rain = 0
KAD1 110122Z 05020KT 16/M08 A2988 RMK A01 T01561078  RH  019%=      5-min Rain = 0
KAD1 110123Z 05018KT 16/M08 A2988 RMK A01 T01561077  RH  019%=      5-min Rain = 0
KAD1 110124Z 05018KT 16/M08 A2988 RMK A01 T01551078  RH  019%=      5-min Rain = 0
KAD1 110125Z 05019KT 15/M08 A2988 RMK A01 T01541077  RH  020%=      5-min Rain = 0
KAD1 110126Z 05020KT 15/M08 A2988 RMK A01 T01541077  RH  020%=      5-min Rain = 0
KAD1 110127Z 05022KT 15/M08 A2988 RMK A01 T01541076  RH  020%=      5-min Rain = 0
KAD1 110128Z 05022KT 15/M08 A2988 RMK A01 T01541076  RH  020%=      5-min Rain = 0
KAD1 110129Z 05019KT 15/M08 A2988 RMK A01 T01541076  RH  020%=      5-min Rain = 0
KAD1 110130Z 05019KT 15/M08 A2988 RMK A01 T01531076  RH  020%=      5-min Rain = 0
KAD1 110131Z 05018KT 15/M08 A2989 RMK A01 T01521076  RH  020%=      5-min Rain = 0
KAD1 110132Z 05016KT 15/M08 A2989 RMK A01 T01511077  RH  020%=      5-min Rain = 0
KAD1 110133Z 05016KT 15/M08 A2989 RMK A01 T01501078  RH  020%=      5-min Rain = 0
KAD1 110134Z 05017KT 15/M08 A2989 RMK A01 T01491078  RH  020%=      5-min Rain = 0
KAD1 110135Z 05017KT 15/M08 A2989 RMK A01 T01481077  RH  020%=      5-min Rain = 0
KAD1 110136Z 05016KT 15/M08 A2989 RMK A01 T01481077  RH  020%=      5-min Rain = 0
KAD1 110137Z 05018KT 15/M08 A2989 RMK A01 T01471076  RH  021%=      5-min Rain = 0
KAD1 110138Z 05018G23KT 15/M08 A2989 RMK A01 T01481076  RH  021%=      5-min Rain = 0
KAD1 110139Z 05016G21KT 15/M08 A2989 RMK A01 T01481076  RH  021%=      5-min Rain = 0
KAD1 110140Z 05018KT 15/M08 A2989 RMK A01 T01471076  RH  021%=      5-min Rain = 0
KAD1 110141Z 05018KT 15/M08 A2989 RMK A01 T01481075  RH  021%=      5-min Rain = 0
KAD1 110142Z 05016KT 15/M08 A2989 RMK A01 T01471075  RH  021%=      5-min Rain = 0
KAD1 110143Z 05017KT 15/M08 A2989 RMK A01 T01461076  RH  021%=      5-min Rain = 0
KAD1 110144Z 05017G22KT 15/M08 A2989 RMK A01 T01461075  RH  021%=      5-min Rain = 0
KAD1 110145Z 05016KT 15/M08 A2989 RMK A01 T01461075  RH  021%=      5-min Rain = 0
KAD1 110146Z 05015KT 15/M08 A299 RMK A01 T01461075  RH  021%=      5-min Rain = 0
KAD1 110147Z 05015KT 15/M08 A299 RMK A01 T01451075  RH  021%=      5-min Rain = 0
KAD1 110148Z 05016G22KT 14/M08 A299 RMK A01 T01441075  RH  021%=      5-min Rain = 0
KAD1 110149Z 05014KT 14/M07 A299 RMK A01 T01441074  RH  021%=      5-min Rain = 0
KAD1 110150Z 05014KT 14/M07 A299 RMK A01 T01441074  RH  021%=      5-min Rain = 0
KAD1 110151Z 05016KT 14/M07 A299 RMK A01 T01431074  RH  021%=      5-min Rain = 0
KAD1 110152Z 06017G22KT 14/M07 A299 RMK A01 T01431074  RH  022%=      5-min Rain = 0
KAD1 110153Z 05015KT 14/M07 A299 RMK A01 T01441073  RH  022%=      5-min Rain = 0
KAD1 110154Z 05016KT 14/M07 A299 RMK A01 T01441073  RH  022%=      5-min Rain = 0
KAD1 110155Z 05014G19KT 14/M07 A2991 RMK A01 T01431073  RH  022%=      5-min Rain = 0
KAD1 110156Z 06013KT 14/M07 A2991 RMK A01 T01431074  RH  022%=      5-min Rain = 0
KAD1 110157Z 06014KT 14/M07 A2991 RMK A01 T01411074  RH  022%=      5-min Rain = 0
KAD1 110158Z 05015KT 14/M07 A2991 RMK A01 T01411074  RH  022%=      5-min Rain = 0
KAD1 110159Z 05014KT 14/M07 A2991 RMK A01 T01411073  RH  022%=      5-min Rain = 0
KAD1 110200Z 05015KT 14/M07 A2991 RMK A01 T01401073  RH  022%=      5-min Rain = 0
KAD1 110201Z 05018KT 14/M07 A2991 RMK A01 T01401072  RH  022%=      5-min Rain = 0
KAD1 110202Z 05016KT 14/M07 A2991 RMK A01 T01411072  RH  022%=      5-min Rain = 0
KAD1 110203Z 05015KT 14/M07 A2992 RMK A01 T01421072  RH  022%=      5-min Rain = 0
KAD1 110204Z 05015KT 14/M07 A2992 RMK A01 T01411072  RH  022%=      5-min Rain = 0
KAD1 110205Z 05015KT 14/M07 A2992 RMK A01 T01401073  RH  022%=      5-min Rain = 0
KAD1 110206Z 05013KT 14/M07 A2992 RMK A01 T01391073  RH  022%=      5-min Rain = 0
KAD1 110207Z 05014KT 14/M07 A2992 RMK A01 T01371074  RH  022%=      5-min Rain = 0
KAD1 110208Z 05014KT 14/M07 A2992 RMK A01 T01361074  RH  023%=      5-min Rain = 0
KAD1 110209Z 05015KT 14/M07 A2992 RMK A01 T01371073  RH  023%=      5-min Rain = 0
KAD1 110210Z 05015KT 14/M07 A2992 RMK A01 T01361073  RH  023%=      5-min Rain = 0
KAD1 110211Z 05015KT 14/M07 A2992 RMK A01 T01361073  RH  023%=      5-min Rain = 0
KAD1 110212Z 05013KT 14/M07 A2993 RMK A01 T01371072  RH  023%=      5-min Rain = 0
KAD1 110213Z 05015KT 14/M07 A2993 RMK A01 T01361072  RH  023%=      5-min Rain = 0
KAD1 110214Z 05016KT 14/M07 A2993 RMK A01 T01361072  RH  023%=      5-min Rain = 0
KAD1 110215Z 05016KT 14/M07 A2993 RMK A01 T01361072  RH  023%=      5-min Rain = 0
KAD1 110216Z 05016KT 14/M07 A2993 RMK A01 T01371072  RH  023%=      5-min Rain = 0
KAD1 110217Z 05013KT 14/M07 A2993 RMK A01 T01371071  RH  023%=      5-min Rain = 0
KAD1 110218Z 05014KT 14/M07 A2993 RMK A01 T01361072  RH  023%=      5-min Rain = 0
KAD1 110219Z 05012KT 14/M07 A2993 RMK A01 T01351072  RH  023%=      5-min Rain = 0
KAD1 110220Z 05014KT 13/M07 A2994 RMK A01 T01331073  RH  023%=      5-min Rain = 0
KAD1 110221Z 05015KT 13/M07 A2994 RMK A01 T01331072  RH  023%=      5-min Rain = 0
KAD1 110222Z 05014KT 13/M07 A2994 RMK A01 T01341071  RH  023%=      5-min Rain = 0
KAD1 110223Z 05015KT 13/M07 A2994 RMK A01 T01341071  RH  023%=      5-min Rain = 0
KAD1 110224Z 05016KT 13/M07 A2994 RMK A01 T01341071  RH  023%=      5-min Rain = 0
KAD1 110225Z 05014G20KT 14/M07 A2994 RMK A01 T01351071  RH  023%=      5-min Rain = 0
KAD1 110226Z 05014KT 14/M07 A2994 RMK A01 T01351071  RH  023%=      5-min Rain = 0
KAD1 110227Z 05014KT 13/M07 A2994 RMK A01 T01341071  RH  023%=      5-min Rain = 0
KAD1 110228Z 05014KT 13/M07 A2994 RMK A01 T01341071  RH  023%=      5-min Rain = 0
KAD1 110229Z 05014KT 13/M07 A2995 RMK A01 T01331071  RH  024%=      5-min Rain = 0
KAD1 110230Z 04014KT 13/M07 A2995 RMK A01 T01331071  RH  024%=      5-min Rain = 0
KAD1 110231Z 05014KT 13/M07 A2995 RMK A01 T01331071  RH  024%=      5-min Rain = 0
KAD1 110232Z 05014KT 13/M07 A2995 RMK A01 T01321071  RH  024%=      5-min Rain = 0
KAD1 110233Z 04014KT 13/M07 A2995 RMK A01 T01321071  RH  024%=      5-min Rain = 0
KAD1 110234Z 04014KT 13/M07 A2995 RMK A01 T01321071  RH  024%=      5-min Rain = 0
KAD1 110235Z 05014KT 13/M07 A2995 RMK A01 T01311071  RH  024%=      5-min Rain = 0
KAD1 110236Z 05015KT 13/M07 A2995 RMK A01 T01311070  RH  024%=      5-min Rain = 0
KAD1 110237Z 05015KT 13/M07 A2995 RMK A01 T01311071  RH  024%=      5-min Rain = 0
KAD1 110238Z 05014KT 13/M07 A2995 RMK A01 T01311071  RH  024%=      5-min Rain = 0
KAD1 110239Z 05016KT 13/M07 A2995 RMK A01 T01311071  RH  024%=      5-min Rain = 0
KAD1 110240Z 05015KT 13/M07 A2995 RMK A01 T01311070  RH  024%=      5-min Rain = 0
KAD1 110241Z 05015G21KT 13/M07 A2995 RMK A01 T01321069  RH  024%=      5-min Rain = 0
KAD1 110242Z 05016KT 13/M07 A2995 RMK A01 T01321070  RH  024%=      5-min Rain = 0
KAD1 110243Z 04015KT 13/M07 A2995 RMK A01 T01321070  RH  024%=      5-min Rain = 0
KAD1 110244Z 04014KT 13/M07 A2995 RMK A01 T01321070  RH  024%=      5-min Rain = 0
KAD1 110245Z 05015KT 13/M07 A2996 RMK A01 T01311070  RH  024%=      5-min Rain = 0
KAD1 110246Z 04014KT 13/M07 A2996 RMK A01 T01311070  RH  024%=      5-min Rain = 0
KAD1 110247Z 05015KT 13/M07 A2996 RMK A01 T01311070  RH  024%=      5-min Rain = 0
KAD1 110248Z 04017KT 13/M07 A2996 RMK A01 T01311070  RH  024%=      5-min Rain = 0
KAD1 110249Z 05014KT 13/M07 A2996 RMK A01 T01321069  RH  024%=      5-min Rain = 0
KAD1 110250Z 05015KT 13/M07 A2996 RMK A01 T01321070  RH  024%=      5-min Rain = 0
KAD1 110251Z 05015KT 13/M07 A2996 RMK A01 T01321069  RH  024%=      5-min Rain = 0
KAD1 110252Z 05015KT 13/M07 A2996 RMK A01 T01311070  RH  024%=      5-min Rain = 0
KAD1 110253Z 05015KT 13/M07 A2996 RMK A01 T01311070  RH  024%=      5-min Rain = 0
KAD1 110254Z 05014KT 13/M07 A2996 RMK A01 T01301070  RH  024%=      5-min Rain = 0
KAD1 110255Z 05015KT 13/M07 A2996 RMK A01 T01291070  RH  024%=      5-min Rain = 0
KAD1 110256Z 05016KT 13/M07 A2997 RMK A01 T01281070  RH  024%=      5-min Rain = 0
KAD1 110257Z 05016KT 13/M07 A2997 RMK A01 T01291069  RH  025%=      5-min Rain = 0
KAD1 110258Z 05014KT 13/M07 A2997 RMK A01 T01291069  RH  025%=      5-min Rain = 0
KAD1 110259Z 05014KT 13/M07 A2997 RMK A01 T01291069  RH  024%=      5-min Rain = 0
KAD1 110300Z 05014KT 13/M07 A2997 RMK A01 T01291070  RH  024%=      5-min Rain = 0
KAD1 110301Z 05013KT 13/M07 A2997 RMK A01 T01281070  RH  025%=      5-min Rain = 0
KAD1 110302Z 05014KT 13/M07 A2997 RMK A01 T01271069  RH  025%=      5-min Rain = 0
KAD1 110303Z 05014KT 13/M07 A2997 RMK A01 T01261070  RH  025%=      5-min Rain = 0
KAD1 110304Z 05014KT 13/M07 A2997 RMK A01 T01261069  RH  025%=      5-min Rain = 0
KAD1 110305Z 05015KT 13/M07 A2997 RMK A01 T01261070  RH  025%=      5-min Rain = 0
KAD1 110306Z 05014KT 13/M07 A2997 RMK A01 T01261069  RH  025%=      5-min Rain = 0
KAD1 110307Z 05014G19KT 13/M07 A2997 RMK A01 T01261069  RH  025%=      5-min Rain = 0
KAD1 110308Z 04015KT 13/M07 A2998 RMK A01 T01261069  RH  025%=      5-min Rain = 0
KAD1 110309Z 04014KT 13/M07 A2998 RMK A01 T01261069  RH  025%=      5-min Rain = 0
KAD1 110310Z 05015KT 13/M07 A2998 RMK A01 T01251069  RH  025%=      5-min Rain = 0
KAD1 110311Z 04014KT 13/M07 A2998 RMK A01 T01251070  RH  025%=      5-min Rain = 0
KAD1 110312Z 05015KT 13/M07 A2998 RMK A01 T01251070  RH  025%=      5-min Rain = 0
KAD1 110313Z 04015KT 13/M07 A2998 RMK A01 T01251069  RH  025%=      5-min Rain = 0
KAD1 110314Z 04016KT 13/M07 A2998 RMK A01 T01251069  RH  025%=      5-min Rain = 0
KAD1 110315Z 05015KT 13/M07 A2998 RMK A01 T01251069  RH  025%=      5-min Rain = 0
KAD1 110316Z 04016KT 13/M07 A2998 RMK A01 T01251069  RH  025%=      5-min Rain = 0
KAD1 110317Z 04017KT 13/M07 A2998 RMK A01 T01251069  RH  025%=      5-min Rain = 0
KAD1 110318Z 05015KT 13/M07 A2999 RMK A01 T01251069  RH  025%=      5-min Rain = 0
KAD1 110319Z 05015KT 13/M07 A2999 RMK A01 T01251069  RH  025%=      5-min Rain = 0
KAD1 110320Z 05015KT 12/M07 A2999 RMK A01 T01241069  RH  025%=      5-min Rain = 0
KAD1 110321Z 04014KT 12/M07 A2999 RMK A01 T01231069  RH  026%=      5-min Rain = 0
KAD1 110322Z 04016KT 12/M07 A2999 RMK A01 T01221069  RH  026%=      5-min Rain = 0
KAD1 110323Z 04016KT 12/M07 A2999 RMK A01 T01221069  RH  026%=      5-min Rain = 0
KAD1 110324Z 04016KT 12/M07 A30 RMK A01 T01221069  RH  026%=      5-min Rain = 0
KAD1 110325Z 04018KT 12/M07 A30 RMK A01 T01221069  RH  026%=      5-min Rain = 0
KAD1 110326Z 04022G28KT 12/M07 A30 RMK A01 T01231068  RH  026%=      5-min Rain = 0
KAD1 110327Z 04021KT 13/M07 A30 RMK A01 T01251066  RH  026%=      5-min Rain = 0
KAD1 110328Z 04019G24KT 13/M07 A30 RMK A01 T01251067  RH  026%=      5-min Rain = 0
KAD1 110329Z 04018KT 12/M07 A30 RMK A01 T01241067  RH  026%=      5-min Rain = 0
KAD1 110330Z 04020KT 12/M07 A30 RMK A01 T01231068  RH  026%=      5-min Rain = 0
KAD1 110331Z 04021KT 12/M07 A30 RMK A01 T01231067  RH  026%=      5-min Rain = 0
KAD1 110332Z 04020G25KT 12/M07 A30 RMK A01 T01231066  RH  026%=      5-min Rain = 0
KAD1 110333Z 04020KT 12/M07 A30 RMK A01 T01231066  RH  026%=      5-min Rain = 0
KAD1 110334Z 04018KT 12/M07 A30 RMK A01 T01221065  RH  026%=      5-min Rain = 0
KAD1 110335Z 03018KT 12/M07 A30 RMK A01 T01201067  RH  026%=      5-min Rain = 0
KAD1 110336Z 03017KT 12/M07 A30 RMK A01 T01191067  RH  027%=      5-min Rain = 0
KAD1 110337Z 03018G26KT 12/M07 A3001 RMK A01 T01171068  RH  027%=      5-min Rain = 0
KAD1 110338Z 04023G28KT 12/M06 A3001 RMK A01 T01161064  RH  028%=      5-min Rain = 0
KAD1 110339Z 04023G29KT 12/M06 A3001 RMK A01 T01171062  RH  028%=      5-min Rain = 0
KAD1 110340Z 04029KT 12/M06 A3001 RMK A01 T01181061  RH  028%=      5-min Rain = 0
KAD1 110341Z 04028KT 12/M06 A3001 RMK A01 T01191060  RH  028%=      5-min Rain = 0
KAD1 110342Z 04028G33KT 12/M06 A3001 RMK A01 T01191059  RH  028%=      5-min Rain = 0
KAD1 110343Z 04025G32KT 12/M06 A3001 RMK A01 T01181059  RH  028%=      5-min Rain = 0
KAD1 110344Z 04025G31KT 12/M06 A3001 RMK A01 T01171059  RH  029%=      5-min Rain = 0
KAD1 110345Z 04029KT 12/M06 A3001 RMK A01 T01171059  RH  029%=      5-min Rain = 0
KAD1 110346Z 04028KT 12/M06 A3001 RMK A01 T01171059  RH  029%=      5-min Rain = 0
KAD1 110347Z 04026KT 12/M06 A3001 RMK A01 T01161059  RH  029%=      5-min Rain = 0
KAD1 110348Z 04028G33KT 12/M06 A3001 RMK A01 T01151060  RH  029%=      5-min Rain = 0
KAD1 110349Z 04028G34KT 12/M06 A3002 RMK A01 T01151060  RH  029%=      5-min Rain = 0
KAD1 110350Z 04028G33KT 11/M06 A3001 RMK A01 T01141059  RH  029%=      5-min Rain = 0
KAD1 110351Z 03027G34KT 11/M06 A3002 RMK A01 T01131059  RH  029%=      5-min Rain = 0
KAD1 110352Z 04024G29KT 11/M06 A3002 RMK A01 T01131060  RH  029%=      5-min Rain = 0
KAD1 110353Z 04025G31KT 11/M06 A3002 RMK A01 T01121060  RH  029%=      5-min Rain = 0
KAD1 110354Z 04025KT 11/M06 A3002 RMK A01 T01111060  RH  029%=      5-min Rain = 0
KAD1 110355Z 04024KT 11/M06 A3002 RMK A01 T01101061  RH  030%=      5-min Rain = 0
KAD1 110356Z 04026G31KT 11/M06 A3003 RMK A01 T01091061  RH  030%=      5-min Rain = 0
KAD1 110357Z 04029KT 11/M06 A3002 RMK A01 T01091060  RH  030%=      5-min Rain = 0
KAD1 110358Z 04028G33KT 11/M06 A3003 RMK A01 T01091060  RH  030%=      5-min Rain = 0
KAD1 110359Z 04024G32KT 11/M06 A3003 RMK A01 T01091060  RH  030%=      5-min Rain = 0
KAD1 110400Z 04021KT 11/M06 A3003 RMK A01 T01081061  RH  030%=      5-min Rain = 0
KAD1 110401Z 04023KT 11/M06 A3003 RMK A01 T01071062  RH  030%=      5-min Rain = 0
KAD1 110402Z 04025KT 11/M06 A3003 RMK A01 T01061061  RH  030%=      5-min Rain = 0
KAD1 110403Z 03024G29KT 11/M06 A3003 RMK A01 T01061060  RH  030%=      5-min Rain = 0
KAD1 110404Z 04022KT 11/M06 A3004 RMK A01 T01061060  RH  031%=      5-min Rain = 0
KAD1 110405Z 03021G26KT 11/M06 A3004 RMK A01 T01051061  RH  031%=      5-min Rain = 0
KAD1 110406Z 04025G33KT 10/M06 A3004 RMK A01 T01041062  RH  031%=      5-min Rain = 0
KAD1 110407Z 04028KT 10/M06 A3004 RMK A01 T01041062  RH  031%=      5-min Rain = 0
KAD1 110408Z 03023G28KT 11/M06 A3004 RMK A01 T01051062  RH  030%=      5-min Rain = 0
KAD1 110409Z 03024G29KT 11/M06 A3004 RMK A01 T01051063  RH  030%=      5-min Rain = 0
KAD1 110410Z 03026G32KT 10/M06 A3004 RMK A01 T01041063  RH  030%=      5-min Rain = 0
KAD1 110411Z 04027KT 10/M06 A3004 RMK A01 T01041063  RH  030%=      5-min Rain = 0
KAD1 110412Z 03027G33KT 10/M06 A3004 RMK A01 T01041064  RH  030%=      5-min Rain = 0
KAD1 110413Z 03027KT 10/M06 A3004 RMK A01 T01041064  RH  030%=      5-min Rain = 0
KAD1 110414Z 04026KT 10/M07 A3004 RMK A01 T01041065  RH  030%=      5-min Rain = 0
KAD1 110415Z 04026G32KT 10/M07 A3004 RMK A01 T01031065  RH  030%=      5-min Rain = 0
KAD1 110416Z 03025KT 10/M07 A3004 RMK A01 T01031065  RH  030%=      5-min Rain = 0
KAD1 110417Z 03021G28KT 10/M07 A3004 RMK A01 T01021066  RH  030%=      5-min Rain = 0
KAD1 110418Z 03026G31KT 10/M07 A3004 RMK A01 T01011067  RH  030%=      5-min Rain = 0
KAD1 110419Z 04024KT 10/M07 A3005 RMK A01 T01011066  RH  030%=      5-min Rain = 0
KAD1 110420Z 03023G29KT 10/M07 A3004 RMK A01 T01011066  RH  030%=      5-min Rain = 0
KAD1 110421Z 03025G30KT 10/M07 A3004 RMK A01 T01011066  RH  030%=      5-min Rain = 0
KAD1 110422Z 04023KT 10/M07 A3004 RMK A01 T01001067  RH  030%=      5-min Rain = 0
KAD1 110423Z 03024G29KT 10/M07 A3004 RMK A01 T01001066  RH  030%=      5-min Rain = 0
KAD1 110424Z 03023KT 10/M07 A3005 RMK A01 T00991067  RH  030%=      5-min Rain = 0
KAD1 110425Z 03024KT 10/M07 A3005 RMK A01 T00991067  RH  030%=      5-min Rain = 0
KAD1 110426Z 04024KT 10/M07 A3005 RMK A01 T00991067  RH  030%=      5-min Rain = 0
KAD1 110427Z 03020KT 10/M07 A3005 RMK A01 T00981067  RH  030%=      5-min Rain = 0
KAD1 110428Z 04024G29KT 10/M07 A3005 RMK A01 T00981067  RH  031%=      5-min Rain = 0
KAD1 110429Z 03022G31KT 10/M07 A3005 RMK A01 T00981067  RH  031%=      5-min Rain = 0
KAD1 110430Z 04021KT 10/M07 A3005 RMK A01 T00971068  RH  031%=      5-min Rain = 0
KAD1 110431Z 04023KT 10/M07 A3006 RMK A01 T00971068  RH  031%=      5-min Rain = 0
KAD1 110432Z 03022KT 10/M07 A3006 RMK A01 T00971068  RH  031%=      5-min Rain = 0
KAD1 110433Z 04022KT 10/M07 A3006 RMK A01 T00971067  RH  031%=      5-min Rain = 0
KAD1 110434Z 03020G25KT 10/M07 A3006 RMK A01 T00961068  RH  031%=      5-min Rain = 0
KAD1 110435Z 04024KT 10/M07 A3006 RMK A01 T00961068  RH  031%=      5-min Rain = 0
KAD1 110436Z 04021G26KT 10/M07 A3006 RMK A01 T00961068  RH  031%=      5-min Rain = 0
KAD1 110437Z 04023KT 10/M07 A3006 RMK A01 T00961068  RH  031%=      5-min Rain = 0
KAD1 110438Z 04022KT 10/M07 A3006 RMK A01 T00961068  RH  031%=      5-min Rain = 0
KAD1 110439Z 03025KT 10/M07 A3006 RMK A01 T00951069  RH  031%=      5-min Rain = 0
KAD1 110440Z 04021KT 10/M07 A3006 RMK A01 T00961069  RH  031%=      5-min Rain = 0
KAD1 110441Z 03022G27KT 10/M07 A3006 RMK A01 T00951069  RH  031%=      5-min Rain = 0
KAD1 110442Z 04023KT 10/M07 A3007 RMK A01 T00951069  RH  031%=      5-min Rain = 0
KAD1 110443Z 04019G25KT 10/M07 A3007 RMK A01 T00951069  RH  031%=      5-min Rain = 0
KAD1 110444Z 04021KT 09/M07 A3007 RMK A01 T00941069  RH  031%=      5-min Rain = 0
KAD1 110445Z 03021KT 09/M07 A3007 RMK A01 T00941069  RH  031%=      5-min Rain = 0
KAD1 110446Z 04021KT 09/M07 A3007 RMK A01 T00941068  RH  031%=      5-min Rain = 0
KAD1 110447Z 04021KT 09/M07 A3007 RMK A01 T00941069  RH  031%=      5-min Rain = 0
KAD1 110448Z 04020KT 09/M07 A3007 RMK A01 T00931069  RH  031%=      5-min Rain = 0
KAD1 110449Z 04023KT 09/M07 A3007 RMK A01 T00931069  RH  031%=      5-min Rain = 0
KAD1 110450Z 03021G26KT 09/M07 A3007 RMK A01 T00921069  RH  031%=      5-min Rain = 0
KAD1 110451Z 04020KT 09/M07 A3007 RMK A01 T00921069  RH  031%=      5-min Rain = 0
KAD1 110452Z 03023G31KT 09/M07 A3008 RMK A01 T00921069  RH  031%=      5-min Rain = 0
KAD1 110453Z 03021KT 09/M07 A3008 RMK A01 T00921069  RH  031%=      5-min Rain = 0
KAD1 110454Z 04019G24KT 09/M07 A3008 RMK A01 T00921069  RH  031%=      5-min Rain = 0
KAD1 110455Z 04021G26KT 09/M07 A3008 RMK A01 T00921070  RH  031%=      5-min Rain = 0
KAD1 110456Z 04025KT 09/M07 A3008 RMK A01 T00921069  RH  031%=      5-min Rain = 0
KAD1 110457Z 04021KT 09/M07 A3008 RMK A01 T00921069  RH  031%=      5-min Rain = 0
KAD1 110458Z 03021KT 09/M07 A3008 RMK A01 T00921069  RH  031%=      5-min Rain = 0
KAD1 110459Z 03022KT 09/M07 A3008 RMK A01 T00911070  RH  031%=      5-min Rain = 0
KAD1 110500Z 03023KT 09/M07 A3008 RMK A01 T00911069  RH  032%=      5-min Rain = 0
KAD1 110501Z 04023KT 09/M07 A3008 RMK A01 T00911069  RH  031%=      5-min Rain = 0
KAD1 110502Z 04024KT 09/M07 A3008 RMK A01 T00911069  RH  031%=      5-min Rain = 0
KAD1 110503Z 03022G28KT 09/M07 A3008 RMK A01 T00921069  RH  031%=      5-min Rain = 0
KAD1 110504Z 03023G31KT 09/M07 A3008 RMK A01 T00911069  RH  031%=      5-min Rain = 0
KAD1 110505Z 04024G29KT 09/M07 A3008 RMK A01 T00901069  RH  032%=      5-min Rain = 0
KAD1 110506Z 03024KT 09/M07 A3008 RMK A01 T00911069  RH  032%=      5-min Rain = 0
KAD1 110507Z 04021KT 09/M07 A3009 RMK A01 T00911069  RH  032%=      5-min Rain = 0
KAD1 110508Z 03023KT 09/M07 A3009 RMK A01 T00901069  RH  032%=      5-min Rain = 0
KAD1 110509Z 03026KT 09/M07 A3009 RMK A01 T00901069  RH  032%=      5-min Rain = 0
KAD1 110510Z 03026KT 09/M07 A3009 RMK A01 T00901069  RH  032%=      5-min Rain = 0
KAD1 110511Z 04020G25KT 09/M07 A3009 RMK A01 T00901070  RH  032%=      5-min Rain = 0
KAD1 110512Z 04021G26KT 09/M07 A3009 RMK A01 T00901070  RH  032%=      5-min Rain = 0
KAD1 110513Z 04021G26KT 09/M07 A301 RMK A01 T00891070  RH  032%=      5-min Rain = 0
KAD1 110514Z 03022G27KT 09/M07 A301 RMK A01 T00891070  RH  032%=      5-min Rain = 0
KAD1 110515Z 03021KT 09/M07 A301 RMK A01 T00891069  RH  032%=      5-min Rain = 0
KAD1 110516Z 03025G30KT 09/M07 A301 RMK A01 T00881070  RH  032%=      5-min Rain = 0
KAD1 110517Z 03024G32KT 09/M07 A301 RMK A01 T00881070  RH  032%=      5-min Rain = 0
KAD1 110518Z 03023KT 09/M07 A301 RMK A01 T00881070  RH  032%=      5-min Rain = 0
KAD1 110519Z 04027G34KT 09/M07 A301 RMK A01 T00881070  RH  032%=      5-min Rain = 0
KAD1 110520Z 04027G32KT 09/M07 A301 RMK A01 T00881070  RH  032%=      5-min Rain = 0
KAD1 110521Z 03024KT 09/M07 A301 RMK A01 T00881070  RH  032%=      5-min Rain = 0
KAD1 110522Z 04023KT 09/M07 A301 RMK A01 T00881069  RH  032%=      5-min Rain = 0
KAD1 110523Z 03023KT 09/M07 A301 RMK A01 T00871070  RH  032%=      5-min Rain = 0
KAD1 110524Z 03022KT 09/M07 A301 RMK A01 T00861070  RH  032%=      5-min Rain = 0
KAD1 110525Z 04021KT 09/M07 A301 RMK A01 T00861070  RH  032%=      5-min Rain = 0
KAD1 110526Z 03021G27KT 09/M07 A301 RMK A01 T00861070  RH  033%=      5-min Rain = 0
KAD1 110527Z 04022G28KT 09/M07 A301 RMK A01 T00851070  RH  033%=      5-min Rain = 0
KAD1 110528Z 04024KT 09/M07 A301 RMK A01 T00851070  RH  033%=      5-min Rain = 0
KAD1 110529Z 04023G31KT 08/M07 A301 RMK A01 T00841070  RH  033%=      5-min Rain = 0
KAD1 110530Z 04025G30KT 09/M07 A301 RMK A01 T00851070  RH  033%=      5-min Rain = 0
KAD1 110531Z 03022G27KT 09/M07 A301 RMK A01 T00851069  RH  033%=      5-min Rain = 0
KAD1 110532Z 03023KT 09/M07 A301 RMK A01 T00851070  RH  033%=      5-min Rain = 0
KAD1 110533Z 04025G32KT 09/M07 A301 RMK A01 T00851069  RH  033%=      5-min Rain = 0
KAD1 110534Z 04022G27KT 09/M07 A3011 RMK A01 T00851069  RH  033%=      5-min Rain = 0
KAD1 110535Z 03026G32KT 08/M07 A301 RMK A01 T00841069  RH  033%=      5-min Rain = 0
KAD1 110536Z 04023G28KT 08/M07 A3011 RMK A01 T00841069  RH  033%=      5-min Rain = 0
KAD1 110537Z 04026G32KT 08/M07 A3011 RMK A01 T00841070  RH  033%=      5-min Rain = 0
KAD1 110538Z 03025KT 08/M07 A3011 RMK A01 T00841070  RH  033%=      5-min Rain = 0
KAD1 110539Z 04026G33KT 08/M07 A3011 RMK A01 T00841069  RH  033%=      5-min Rain = 0
KAD1 110540Z 03024G32KT 08/M07 A3011 RMK A01 T00841069  RH  033%=      5-min Rain = 0
KAD1 110541Z 04021G27KT 08/M07 A3011 RMK A01 T00831069  RH  033%=      5-min Rain = 0
KAD1 110542Z 04025G36KT 08/M07 A3011 RMK A01 T00821069  RH  033%=      5-min Rain = 0
KAD1 110543Z 04028G33KT 08/M07 A3011 RMK A01 T00831068  RH  034%=      5-min Rain = 0
KAD1 110544Z 04028G33KT 08/M07 A3011 RMK A01 T00831068  RH  034%=      5-min Rain = 0
KAD1 110545Z 04025G31KT 08/M07 A3011 RMK A01 T00831068  RH  034%=      5-min Rain = 0
KAD1 110546Z 03024KT 08/M07 A3011 RMK A01 T00831068  RH  034%=      5-min Rain = 0
KAD1 110547Z 03024KT 08/M07 A3011 RMK A01 T00821068  RH  034%=      5-min Rain = 0
KAD1 110548Z 04023KT 08/M07 A3011 RMK A01 T00821068  RH  034%=      5-min Rain = 0
KAD1 110549Z 04022KT 08/M07 A3011 RMK A01 T00821068  RH  034%=      5-min Rain = 0
KAD1 110550Z 04022KT 08/M07 A3011 RMK A01 T00811068  RH  034%=      5-min Rain = 0
KAD1 110551Z 04023G29KT 08/M07 A3011 RMK A01 T00811068  RH  034%=      5-min Rain = 0
KAD1 110552Z 04023KT 08/M07 A3011 RMK A01 T00811068  RH  034%=      5-min Rain = 0
KAD1 110553Z 04020KT 08/M07 A3012 RMK A01 T00811068  RH  034%=      5-min Rain = 0
KAD1 110554Z 04023G29KT 08/M07 A3012 RMK A01 T00801068  RH  034%=      5-min Rain = 0
KAD1 110555Z 04023KT 08/M07 A3012 RMK A01 T00801068  RH  034%=      5-min Rain = 0
KAD1 110556Z 04019G24KT 08/M07 A3012 RMK A01 T00801068  RH  034%=      5-min Rain = 0
KAD1 110557Z 04020G26KT 08/M07 A3012 RMK A01 T00791068  RH  034%=      5-min Rain = 0
KAD1 110558Z 04021KT 08/M07 A3012 RMK A01 T00791068  RH  035%=      5-min Rain = 0
KAD1 110559Z 03020KT 08/M07 A3012 RMK A01 T00791068  RH  035%=      5-min Rain = 0

Page generated in 0.143 seconds.